<?xml version="1.0"?>
<gpx xmlns="http://www.topografix.com/GPX/1/1" xmlns:xsi="http://www.w3.org/2001/XMLSchema-instance" xmlns:wptx1="http://www.garmin.com/xmlschemas/WaypointExtension/v1" xmlns:gpxtrx="http://www.garmin.com/xmlschemas/GpxExtensions/v3" xmlns:gpxtpx="http://www.garmin.com/xmlschemas/TrackPointExtension/v1" xmlns:gpxx="http://www.garmin.com/xmlschemas/GpxExtensions/v3" xmlns:trp="http://www.garmin.com/xmlschemas/TripExtensions/v1" xmlns:adv="http://www.garmin.com/xmlschemas/AdventuresExtensions/v1" xmlns:prs="http://www.garmin.com/xmlschemas/PressureExtension/v1" xmlns:tmd="http://www.garmin.com/xmlschemas/TripMetaDataExtensions/v1" xmlns:vptm="http://www.garmin.com/xmlschemas/ViaPointTransportationModeExtensions/v1" xmlns:ctx="http://www.garmin.com/xmlschemas/CreationTimeExtension/v1" xmlns:gpxacc="http://www.garmin.com/xmlschemas/AccelerationExtension/v1" xmlns:gpxpx="http://www.garmin.com/xmlschemas/PowerExtension/v1" xmlns:vidx1="http://www.garmin.com/xmlschemas/VideoExtension/v1" creator="Garmin Desktop App" version="1.1" xsi:schemaLocation="http://www.topografix.com/GPX/1/1 http://www.topografix.com/GPX/1/1/gpx.xsd http://www.garmin.com/xmlschemas/WaypointExtension/v1 http://www8.garmin.com/xmlschemas/WaypointExtensionv1.xsd http://www.garmin.com/xmlschemas/TrackPointExtension/v1 http://www.garmin.com/xmlschemas/TrackPointExtensionv1.xsd http://www.garmin.com/xmlschemas/GpxExtensions/v3 http://www8.garmin.com/xmlschemas/GpxExtensionsv3.xsd http://www.garmin.com/xmlschemas/ActivityExtension/v1 http://www8.garmin.com/xmlschemas/ActivityExtensionv1.xsd http://www.garmin.com/xmlschemas/AdventuresExtensions/v1 http://www8.garmin.com/xmlschemas/AdventuresExtensionv1.xsd http://www.garmin.com/xmlschemas/PressureExtension/v1 http://www.garmin.com/xmlschemas/PressureExtensionv1.xsd http://www.garmin.com/xmlschemas/TripExtensions/v1 http://www.garmin.com/xmlschemas/TripExtensionsv1.xsd http://www.garmin.com/xmlschemas/TripMetaDataExtensions/v1 http://www.garmin.com/xmlschemas/TripMetaDataExtensionsv1.xsd http://www.garmin.com/xmlschemas/ViaPointTransportationModeExtensions/v1 http://www.garmin.com/xmlschemas/ViaPointTransportationModeExtensionsv1.xsd http://www.garmin.com/xmlschemas/CreationTimeExtension/v1 http://www.garmin.com/xmlschemas/CreationTimeExtensionsv1.xsd http://www.garmin.com/xmlschemas/AccelerationExtension/v1 http://www.garmin.com/xmlschemas/AccelerationExtensionv1.xsd http://www.garmin.com/xmlschemas/PowerExtension/v1 http://www.garmin.com/xmlschemas/PowerExtensionv1.xsd http://www.garmin.com/xmlschemas/VideoExtension/v1 http://www.garmin.com/xmlschemas/VideoExtensionv1.xsd">

  <metadata>
    <link href="http://www.garmin.com">
      <text>Garmin International</text>
    </link>
    <time>2015-03-14T16:29:06Z</time>
    <bounds maxlat="47.701409440487623" maxlon="12.056889357045293" minlat="47.686215313151479" minlon="12.035415507853031"/>
  </metadata>

  <trk>
    <name>Wildalpjoch 2015.03.14</name>
    <extensions>
      <gpxx:TrackExtension>
        <gpxx:DisplayColor>Cyan</gpxx:DisplayColor>
      </gpxx:TrackExtension>
      <gpxtrkx:TrackStatsExtension xmlns:gpxtrkx="http://www.garmin.com/xmlschemas/TrackStatsExtension/v1">
        <gpxtrkx:Distance>6747</gpxtrkx:Distance>
        <gpxtrkx:TotalElapsedTime>31831</gpxtrkx:TotalElapsedTime>
        <gpxtrkx:MovingTime>7049</gpxtrkx:MovingTime>
        <gpxtrkx:StoppedTime>2528</gpxtrkx:StoppedTime>
        <gpxtrkx:MovingSpeed>1</gpxtrkx:MovingSpeed>
        <gpxtrkx:MaxSpeed>9</gpxtrkx:MaxSpeed>
        <gpxtrkx:MaxElevation>1727</gpxtrkx:MaxElevation>
        <gpxtrkx:MinElevation>485</gpxtrkx:MinElevation>
        <gpxtrkx:Ascent>733</gpxtrkx:Ascent>
        <gpxtrkx:Descent>741</gpxtrkx:Descent>
        <gpxtrkx:AvgAscentRate>0</gpxtrkx:AvgAscentRate>
        <gpxtrkx:MaxAscentRate>0</gpxtrkx:MaxAscentRate>
        <gpxtrkx:AvgDescentRate>0</gpxtrkx:AvgDescentRate>
        <gpxtrkx:MaxDescentRate>-3</gpxtrkx:MaxDescentRate>
      </gpxtrkx:TrackStatsExtension>
    </extensions>
    <trkseg>
      <trkpt lat="47.686221180483699" lon="12.05688675865531">
        <ele>1002.220000000000027</ele>
        <time>2015-03-14T07:28:03Z</time>
      </trkpt>
      <trkpt lat="47.686220929026604" lon="12.056888099759817">
        <ele>1002.220000000000027</ele>
        <time>2015-03-14T07:28:04Z</time>
      </trkpt>
      <trkpt lat="47.686220007017255" lon="12.056889357045293">
        <ele>1000.940000000000055</ele>
        <time>2015-03-14T07:28:08Z</time>
      </trkpt>
      <trkpt lat="47.686228724196553" lon="12.056865468621254">
        <ele>999.860000000000014</ele>
        <time>2015-03-14T07:28:36Z</time>
      </trkpt>
      <trkpt lat="47.686228891834617" lon="12.056830767542124">
        <ele>999.32000000000005</ele>
        <time>2015-03-14T07:29:04Z</time>
      </trkpt>
      <trkpt lat="47.686238866299391" lon="12.056823307648301">
        <ele>1002.559999999999945</ele>
        <time>2015-03-14T07:29:18Z</time>
      </trkpt>
      <trkpt lat="47.686241129413247" lon="12.056826241314411">
        <ele>999.529999999999973</ele>
        <time>2015-03-14T07:29:19Z</time>
      </trkpt>
      <trkpt lat="47.686226796358824" lon="12.056831605732441">
        <ele>1002.399999999999977</ele>
        <time>2015-03-14T07:29:49Z</time>
      </trkpt>
      <trkpt lat="47.686217073351145" lon="12.056863624602556">
        <ele>1002.330000000000041</ele>
        <time>2015-03-14T07:30:09Z</time>
      </trkpt>
      <trkpt lat="47.686215313151479" lon="12.056856751441956">
        <ele>1002.17999999999995</ele>
        <time>2015-03-14T07:30:32Z</time>
      </trkpt>
      <trkpt lat="47.686232412233949" lon="12.056804616004229">
        <ele>1001.240000000000009</ele>
        <time>2015-03-14T07:30:57Z</time>
      </trkpt>
      <trkpt lat="47.686237441375852" lon="12.056796066462994">
        <ele>1002.720000000000027</ele>
        <time>2015-03-14T07:30:58Z</time>
      </trkpt>
      <trkpt lat="47.68625102005899" lon="12.056778213009238">
        <ele>1002.620000000000005</ele>
        <time>2015-03-14T07:31:00Z</time>
      </trkpt>
      <trkpt lat="47.68629502505064" lon="12.056739153340459">
        <ele>1001.860000000000014</ele>
        <time>2015-03-14T07:31:05Z</time>
      </trkpt>
      <trkpt lat="47.686414634808898" lon="12.056461712345481">
        <ele>1002.42999999999995</ele>
        <time>2015-03-14T07:31:24Z</time>
      </trkpt>
      <trkpt lat="47.686543967574835" lon="12.056340090930462">
        <ele>1002.080000000000041</ele>
        <time>2015-03-14T07:31:38Z</time>
      </trkpt>
      <trkpt lat="47.686600042507052" lon="12.055971203371882">
        <ele>1004.309999999999945</ele>
        <time>2015-03-14T07:31:57Z</time>
      </trkpt>
      <trkpt lat="47.686574142426252" lon="12.055535931140184">
        <ele>1004.269999999999982</ele>
        <time>2015-03-14T07:32:18Z</time>
      </trkpt>
      <trkpt lat="47.686526114121079" lon="12.055340381339192">
        <ele>1004.559999999999945</ele>
        <time>2015-03-14T07:32:29Z</time>
      </trkpt>
      <trkpt lat="47.686564335599542" lon="12.055233847349882">
        <ele>1004.980000000000018</ele>
        <time>2015-03-14T07:32:45Z</time>
      </trkpt>
      <trkpt lat="47.686696266755462" lon="12.055250946432352">
        <ele>1006.460000000000036</ele>
        <time>2015-03-14T07:33:03Z</time>
      </trkpt>
      <trkpt lat="47.686734572052956" lon="12.055220855399966">
        <ele>1007.92999999999995</ele>
        <time>2015-03-14T07:33:08Z</time>
      </trkpt>
      <trkpt lat="47.686776397749782" lon="12.055200822651386">
        <ele>1007.549999999999955</ele>
        <time>2015-03-14T07:33:12Z</time>
      </trkpt>
      <trkpt lat="47.686914280056953" lon="12.055155644193292">
        <ele>1008.769999999999982</ele>
        <time>2015-03-14T07:33:24Z</time>
      </trkpt>
      <trkpt lat="47.687076302245259" lon="12.055076099932194">
        <ele>1008.299999999999955</ele>
        <time>2015-03-14T07:33:38Z</time>
      </trkpt>
      <trkpt lat="47.687165150418878" lon="12.055029245093465">
        <ele>1007.090000000000032</ele>
        <time>2015-03-14T07:33:50Z</time>
      </trkpt>
      <trkpt lat="47.687168838456273" lon="12.055025976151228">
        <ele>1008.350000000000023</ele>
        <time>2015-03-14T07:34:01Z</time>
      </trkpt>
      <trkpt lat="47.687173616141081" lon="12.05501239746809">
        <ele>1007.029999999999973</ele>
        <time>2015-03-14T07:34:03Z</time>
      </trkpt>
      <trkpt lat="47.687220135703683" lon="12.054992448538542">
        <ele>1006.789999999999964</ele>
        <time>2015-03-14T07:34:07Z</time>
      </trkpt>
      <trkpt lat="47.687391294166446" lon="12.054947521537542">
        <ele>1005.42999999999995</ele>
        <time>2015-03-14T07:34:20Z</time>
      </trkpt>
      <trkpt lat="47.687555244192481" lon="12.054908210411668">
        <ele>1004.620000000000005</ele>
        <time>2015-03-14T07:34:32Z</time>
      </trkpt>
      <trkpt lat="47.687698993831873" lon="12.05484576523304">
        <ele>1005.169999999999959</ele>
        <time>2015-03-14T07:34:43Z</time>
      </trkpt>
      <trkpt lat="47.687869900837541" lon="12.054780721664429">
        <ele>1007.019999999999982</ele>
        <time>2015-03-14T07:34:56Z</time>
      </trkpt>
      <trkpt lat="47.687971154227853" lon="12.054732190445065">
        <ele>1007.240000000000009</ele>
        <time>2015-03-14T07:35:05Z</time>
      </trkpt>
      <trkpt lat="47.687994791194797" lon="12.05472313798964">
        <ele>1007.240000000000009</ele>
        <time>2015-03-14T07:35:07Z</time>
      </trkpt>
      <trkpt lat="47.688096966594458" lon="12.054616184905171">
        <ele>1007.57000000000005</ele>
        <time>2015-03-14T07:35:17Z</time>
      </trkpt>
      <trkpt lat="47.688139379024506" lon="12.054540831595659">
        <ele>1007.450000000000045</ele>
        <time>2015-03-14T07:35:22Z</time>
      </trkpt>
      <trkpt lat="47.688178354874253" lon="12.054475788027048">
        <ele>1007.590000000000032</ele>
        <time>2015-03-14T07:35:26Z</time>
      </trkpt>
      <trkpt lat="47.688212972134352" lon="12.054384173825383">
        <ele>1007.220000000000027</ele>
        <time>2015-03-14T07:35:31Z</time>
      </trkpt>
      <trkpt lat="47.688249852508307" lon="12.054284512996674">
        <ele>1007.169999999999959</ele>
        <time>2015-03-14T07:35:37Z</time>
      </trkpt>
      <trkpt lat="47.688319338485599" lon="12.054102793335915">
        <ele>1008.559999999999945</ele>
        <time>2015-03-14T07:35:49Z</time>
      </trkpt>
      <trkpt lat="47.688323780894279" lon="12.054069014266133">
        <ele>1007.669999999999959</ele>
        <time>2015-03-14T07:36:01Z</time>
      </trkpt>
      <trkpt lat="47.688321601599455" lon="12.054090471938252">
        <ele>1008.080000000000041</ele>
        <time>2015-03-14T07:36:17Z</time>
      </trkpt>
      <trkpt lat="47.688330318778753" lon="12.054079910740256">
        <ele>1007.539999999999964</ele>
        <time>2015-03-14T07:36:29Z</time>
      </trkpt>
      <trkpt lat="47.68833409063518" lon="12.054025009274483">
        <ele>1009.360000000000014</ele>
        <time>2015-03-14T07:36:45Z</time>
      </trkpt>
      <trkpt lat="47.688354710116982" lon="12.054002126678824">
        <ele>1007.779999999999973</ele>
        <time>2015-03-14T07:36:48Z</time>
      </trkpt>
      <trkpt lat="47.688383040949702" lon="12.053962564095855">
        <ele>1008.840000000000032</ele>
        <time>2015-03-14T07:36:53Z</time>
      </trkpt>
      <trkpt lat="47.68843618221581" lon="12.053874135017395">
        <ele>1008.440000000000055</ele>
        <time>2015-03-14T07:37:04Z</time>
      </trkpt>
      <trkpt lat="47.688557635992765" lon="12.053778329864144">
        <ele>1010.57000000000005</ele>
        <time>2015-03-14T07:37:17Z</time>
      </trkpt>
      <trkpt lat="47.68863650970161" lon="12.053711693733931">
        <ele>1012.07000000000005</ele>
        <time>2015-03-14T07:37:28Z</time>
      </trkpt>
      <trkpt lat="47.688682358711958" lon="12.053669448941946">
        <ele>1013.120000000000005</ele>
        <time>2015-03-14T07:37:33Z</time>
      </trkpt>
      <trkpt lat="47.688729297369719" lon="12.053639441728592">
        <ele>1014.42999999999995</ele>
        <time>2015-03-14T07:37:39Z</time>
      </trkpt>
      <trkpt lat="47.688883105292916" lon="12.053526537492871">
        <ele>1016.090000000000032</ele>
        <time>2015-03-14T07:37:55Z</time>
      </trkpt>
      <trkpt lat="47.688894672319293" lon="12.053517317399383">
        <ele>1015.539999999999964</ele>
        <time>2015-03-14T07:37:56Z</time>
      </trkpt>
      <trkpt lat="47.688923422247171" lon="12.053504409268498">
        <ele>1015.970000000000027</ele>
        <time>2015-03-14T07:37:59Z</time>
      </trkpt>
      <trkpt lat="47.688970780000091" lon="12.053458392620087">
        <ele>1017.860000000000014</ele>
        <time>2015-03-14T07:38:06Z</time>
      </trkpt>
      <trkpt lat="47.689065327867866" lon="12.053494770079851">
        <ele>1020.620000000000005</ele>
        <time>2015-03-14T07:38:21Z</time>
      </trkpt>
      <trkpt lat="47.689075637608767" lon="12.05348102375865">
        <ele>1020.909999999999968</ele>
        <time>2015-03-14T07:38:26Z</time>
      </trkpt>
      <trkpt lat="47.689141519367695" lon="12.053432408720255">
        <ele>1021.100000000000023</ele>
        <time>2015-03-14T07:38:34Z</time>
      </trkpt>
      <trkpt lat="47.689244952052832" lon="12.053323276340961">
        <ele>1023.980000000000018</ele>
        <time>2015-03-14T07:38:49Z</time>
      </trkpt>
      <trkpt lat="47.689320892095566" lon="12.053185561671853">
        <ele>1026.6400000000001</ele>
        <time>2015-03-14T07:39:03Z</time>
      </trkpt>
      <trkpt lat="47.689362214878201" lon="12.0530398003757">
        <ele>1028.579999999999927</ele>
        <time>2015-03-14T07:39:16Z</time>
      </trkpt>
      <trkpt lat="47.689397837966681" lon="12.052924800664186">
        <ele>1031.299999999999955</ele>
        <time>2015-03-14T07:39:27Z</time>
      </trkpt>
      <trkpt lat="47.689437568187714" lon="12.052791528403759">
        <ele>1034.130000000000109</ele>
        <time>2015-03-14T07:39:40Z</time>
      </trkpt>
      <trkpt lat="47.689470928162336" lon="12.052772669121623">
        <ele>1034.420000000000073</ele>
        <time>2015-03-14T07:39:46Z</time>
      </trkpt>
      <trkpt lat="47.689527506008744" lon="12.052777446806431">
        <ele>1036.269999999999982</ele>
        <time>2015-03-14T07:39:54Z</time>
      </trkpt>
      <trkpt lat="47.689643427729607" lon="12.052808627486229">
        <ele>1038.509999999999991</ele>
        <time>2015-03-14T07:40:09Z</time>
      </trkpt>
      <trkpt lat="47.68965826369822" lon="12.052798736840487">
        <ele>1038.569999999999936</ele>
        <time>2015-03-14T07:40:11Z</time>
      </trkpt>
      <trkpt lat="47.689762366935611" lon="12.052779542282224">
        <ele>1041.25</ele>
        <time>2015-03-14T07:40:26Z</time>
      </trkpt>
      <trkpt lat="47.689817938953638" lon="12.052714917808771">
        <ele>1044.309999999999945</ele>
        <time>2015-03-14T07:40:42Z</time>
      </trkpt>
      <trkpt lat="47.689862446859479" lon="12.052640905603766">
        <ele>1048.130000000000109</ele>
        <time>2015-03-14T07:40:55Z</time>
      </trkpt>
      <trkpt lat="47.689859932288527" lon="12.05251207575202">
        <ele>1051.480000000000018</ele>
        <time>2015-03-14T07:41:10Z</time>
      </trkpt>
      <trkpt lat="47.689861860126257" lon="12.052509309723973">
        <ele>1051.339999999999918</ele>
        <time>2015-03-14T07:41:11Z</time>
      </trkpt>
      <trkpt lat="47.68986152485013" lon="12.052493300288916">
        <ele>1050.509999999999991</ele>
        <time>2015-03-14T07:41:17Z</time>
      </trkpt>
      <trkpt lat="47.689830092713237" lon="12.05231124535203">
        <ele>1054.269999999999982</ele>
        <time>2015-03-14T07:41:33Z</time>
      </trkpt>
      <trkpt lat="47.689824141561985" lon="12.052244944497943">
        <ele>1055.019999999999982</ele>
        <time>2015-03-14T07:41:39Z</time>
      </trkpt>
      <trkpt lat="47.689887508749962" lon="12.052219547331333">
        <ele>1057.1400000000001</ele>
        <time>2015-03-14T07:41:53Z</time>
      </trkpt>
      <trkpt lat="47.689946182072163" lon="12.05214218236506">
        <ele>1059.880000000000109</ele>
        <time>2015-03-14T07:42:06Z</time>
      </trkpt>
      <trkpt lat="47.689955905079842" lon="12.052144194021821">
        <ele>1059.309999999999945</ele>
        <time>2015-03-14T07:42:07Z</time>
      </trkpt>
      <trkpt lat="47.690047351643443" lon="12.052074121311307">
        <ele>1061.329999999999927</ele>
        <time>2015-03-14T07:42:22Z</time>
      </trkpt>
      <trkpt lat="47.690099403262138" lon="12.052041264250875">
        <ele>1063.680000000000064</ele>
        <time>2015-03-14T07:42:29Z</time>
      </trkpt>
      <trkpt lat="47.690153801813722" lon="12.051972951740026">
        <ele>1065.210000000000036</ele>
        <time>2015-03-14T07:42:43Z</time>
      </trkpt>
      <trkpt lat="47.690236950293183" lon="12.051903884857893">
        <ele>1067.630000000000109</ele>
        <time>2015-03-14T07:42:56Z</time>
      </trkpt>
      <trkpt lat="47.690329905599356" lon="12.051845462992787">
        <ele>1070.160000000000082</ele>
        <time>2015-03-14T07:43:10Z</time>
      </trkpt>
      <trkpt lat="47.690357565879822" lon="12.051786622032523">
        <ele>1071.119999999999891</ele>
        <time>2015-03-14T07:43:17Z</time>
      </trkpt>
      <trkpt lat="47.690347339957952" lon="12.051716884598136">
        <ele>1072.420000000000073</ele>
        <time>2015-03-14T07:43:22Z</time>
      </trkpt>
      <trkpt lat="47.69033401273191" lon="12.051536673679948">
        <ele>1076.1400000000001</ele>
        <time>2015-03-14T07:43:39Z</time>
      </trkpt>
      <trkpt lat="47.69033937714994" lon="12.051519993692636">
        <ele>1075.740000000000009</ele>
        <time>2015-03-14T07:43:47Z</time>
      </trkpt>
      <trkpt lat="47.690359577536583" lon="12.051458470523357">
        <ele>1077.6099999999999</ele>
        <time>2015-03-14T07:43:55Z</time>
      </trkpt>
      <trkpt lat="47.69047717563808" lon="12.051448244601488">
        <ele>1080.579999999999927</ele>
        <time>2015-03-14T07:44:11Z</time>
      </trkpt>
      <trkpt lat="47.690490083768964" lon="12.051342884078622">
        <ele>1082.220000000000027</ele>
        <time>2015-03-14T07:44:26Z</time>
      </trkpt>
      <trkpt lat="47.69051430746913" lon="12.051239870488644">
        <ele>1083.829999999999927</ele>
        <time>2015-03-14T07:44:37Z</time>
      </trkpt>
      <trkpt lat="47.690547332167625" lon="12.051135096698999">
        <ele>1087.589999999999918</ele>
        <time>2015-03-14T07:44:48Z</time>
      </trkpt>
      <trkpt lat="47.690582536160946" lon="12.050962764769793">
        <ele>1091.329999999999927</ele>
        <time>2015-03-14T07:45:05Z</time>
      </trkpt>
      <trkpt lat="47.69061304628849" lon="12.05081800930202">
        <ele>1092.150000000000091</ele>
        <time>2015-03-14T07:45:23Z</time>
      </trkpt>
      <trkpt lat="47.690633749589324" lon="12.050753887742758">
        <ele>1093.700000000000045</ele>
        <time>2015-03-14T07:45:29Z</time>
      </trkpt>
      <trkpt lat="47.690719831734896" lon="12.050530761480331">
        <ele>1095.869999999999891</ele>
        <time>2015-03-14T07:45:48Z</time>
      </trkpt>
      <trkpt lat="47.690726453438401" lon="12.050503268837929">
        <ele>1095.940000000000055</ele>
        <time>2015-03-14T07:45:50Z</time>
      </trkpt>
      <trkpt lat="47.69078504294157" lon="12.050360441207886">
        <ele>1099.1400000000001</ele>
        <time>2015-03-14T07:46:03Z</time>
      </trkpt>
      <trkpt lat="47.69078504294157" lon="12.050350634381175">
        <ele>1098.779999999999973</ele>
        <time>2015-03-14T07:46:04Z</time>
      </trkpt>
      <trkpt lat="47.690842291340232" lon="12.050209902226925">
        <ele>1100.349999999999909</ele>
        <time>2015-03-14T07:46:21Z</time>
      </trkpt>
      <trkpt lat="47.69086224026978" lon="12.050093645229936">
        <ele>1102.5</ele>
        <time>2015-03-14T07:46:34Z</time>
      </trkpt>
      <trkpt lat="47.690893337130547" lon="12.049939166754484">
        <ele>1104.680000000000064</ele>
        <time>2015-03-14T07:46:51Z</time>
      </trkpt>
      <trkpt lat="47.690934240818024" lon="12.049839170649648">
        <ele>1106.029999999999973</ele>
        <time>2015-03-14T07:47:04Z</time>
      </trkpt>
      <trkpt lat="47.691000457853079" lon="12.049608416855335">
        <ele>1108.369999999999891</ele>
        <time>2015-03-14T07:47:23Z</time>
      </trkpt>
      <trkpt lat="47.691017221659422" lon="12.049537505954504">
        <ele>1109.849999999999909</ele>
        <time>2015-03-14T07:47:30Z</time>
      </trkpt>
      <trkpt lat="47.691071452572942" lon="12.049333993345499">
        <ele>1111.009999999999991</ele>
        <time>2015-03-14T07:47:47Z</time>
      </trkpt>
      <trkpt lat="47.691086204722524" lon="12.049301723018289">
        <ele>1110.539999999999964</ele>
        <time>2015-03-14T07:47:51Z</time>
      </trkpt>
      <trkpt lat="47.691142866387963" lon="12.049182867631316">
        <ele>1112.069999999999936</ele>
        <time>2015-03-14T07:48:03Z</time>
      </trkpt>
      <trkpt lat="47.691160636022687" lon="12.049109693616629">
        <ele>1112.690000000000055</ele>
        <time>2015-03-14T07:48:11Z</time>
      </trkpt>
      <trkpt lat="47.691132221370935" lon="12.048996705561876">
        <ele>1115.380000000000109</ele>
        <time>2015-03-14T07:48:27Z</time>
      </trkpt>
      <trkpt lat="47.69118276424706" lon="12.048945911228657">
        <ele>1117.029999999999973</ele>
        <time>2015-03-14T07:48:41Z</time>
      </trkpt>
      <trkpt lat="47.691243030130863" lon="12.048877347260714">
        <ele>1120.299999999999955</ele>
        <time>2015-03-14T07:48:55Z</time>
      </trkpt>
      <trkpt lat="47.691278904676437" lon="12.048811130225658">
        <ele>1122.6400000000001</ele>
        <time>2015-03-14T07:49:12Z</time>
      </trkpt>
      <trkpt lat="47.691307570785284" lon="12.048729071393609">
        <ele>1123.599999999999909</ele>
        <time>2015-03-14T07:49:28Z</time>
      </trkpt>
      <trkpt lat="47.691351994872093" lon="12.048601415008307">
        <ele>1125.349999999999909</ele>
        <time>2015-03-14T07:49:41Z</time>
      </trkpt>
      <trkpt lat="47.691408153623343" lon="12.048451211303473">
        <ele>1127.730000000000018</ele>
        <time>2015-03-14T07:49:57Z</time>
      </trkpt>
      <trkpt lat="47.691475125029683" lon="12.048312071710825">
        <ele>1131.400000000000091</ele>
        <time>2015-03-14T07:50:14Z</time>
      </trkpt>
      <trkpt lat="47.691487949341536" lon="12.048263624310493">
        <ele>1130.6400000000001</ele>
        <time>2015-03-14T07:50:31Z</time>
      </trkpt>
      <trkpt lat="47.691586771979928" lon="12.048146110028028">
        <ele>1133.970000000000027</ele>
        <time>2015-03-14T07:50:48Z</time>
      </trkpt>
      <trkpt lat="47.69163035787642" lon="12.047989955171943">
        <ele>1135.980000000000018</ele>
        <time>2015-03-14T07:51:03Z</time>
      </trkpt>
      <trkpt lat="47.6917021907866" lon="12.047844110056758">
        <ele>1138.8599999999999</ele>
        <time>2015-03-14T07:51:19Z</time>
      </trkpt>
      <trkpt lat="47.6917539909482" lon="12.047743443399668">
        <ele>1140.880000000000109</ele>
        <time>2015-03-14T07:51:34Z</time>
      </trkpt>
      <trkpt lat="47.691756170243025" lon="12.04757547006011">
        <ele>1143.589999999999918</ele>
        <time>2015-03-14T07:51:50Z</time>
      </trkpt>
      <trkpt lat="47.691765474155545" lon="12.047482179477811">
        <ele>1144.799999999999955</ele>
        <time>2015-03-14T07:52:05Z</time>
      </trkpt>
      <trkpt lat="47.691813418641686" lon="12.047494752332568">
        <ele>1146.799999999999955</ele>
        <time>2015-03-14T07:52:17Z</time>
      </trkpt>
      <trkpt lat="47.69185708835721" lon="12.047457620501518">
        <ele>1147.009999999999991</ele>
        <time>2015-03-14T07:52:31Z</time>
      </trkpt>
      <trkpt lat="47.69193721935153" lon="12.047377405688167">
        <ele>1150.319999999999936</ele>
        <time>2015-03-14T07:52:46Z</time>
      </trkpt>
      <trkpt lat="47.691975357010961" lon="12.047167187556624">
        <ele>1152.259999999999991</ele>
        <time>2015-03-14T07:53:06Z</time>
      </trkpt>
      <trkpt lat="47.691962532699108" lon="12.047144556418061">
        <ele>1148.009999999999991</ele>
        <time>2015-03-14T07:53:18Z</time>
      </trkpt>
      <trkpt lat="47.691963957622647" lon="12.047144053503871">
        <ele>1151.400000000000091</ele>
        <time>2015-03-14T07:53:21Z</time>
      </trkpt>
      <trkpt lat="47.691961862146854" lon="12.0471425447613">
        <ele>1155.569999999999936</ele>
        <time>2015-03-14T07:53:45Z</time>
      </trkpt>
      <trkpt lat="47.691959263756871" lon="12.047143466770649">
        <ele>1152.470000000000027</ele>
        <time>2015-03-14T07:53:46Z</time>
      </trkpt>
      <trkpt lat="47.69195482134819" lon="12.04716743901372">
        <ele>1150.200000000000045</ele>
        <time>2015-03-14T07:54:04Z</time>
      </trkpt>
      <trkpt lat="47.691957000643015" lon="12.047170121222734">
        <ele>1154.670000000000073</ele>
        <time>2015-03-14T07:54:05Z</time>
      </trkpt>
      <trkpt lat="47.691956833004951" lon="12.047172300517559">
        <ele>1148.180000000000064</ele>
        <time>2015-03-14T07:54:06Z</time>
      </trkpt>
      <trkpt lat="47.691958257928491" lon="12.047175150364637">
        <ele>1155.190000000000055</ele>
        <time>2015-03-14T07:54:07Z</time>
      </trkpt>
      <trkpt lat="47.691962029784918" lon="12.04717724584043">
        <ele>1150.059999999999945</ele>
        <time>2015-03-14T07:54:08Z</time>
      </trkpt>
      <trkpt lat="47.691972255706787" lon="12.047180766239762">
        <ele>1156.089999999999918</ele>
        <time>2015-03-14T07:54:11Z</time>
      </trkpt>
      <trkpt lat="47.691975021734834" lon="12.047180933877826">
        <ele>1151.839999999999918</ele>
        <time>2015-03-14T07:54:12Z</time>
      </trkpt>
      <trkpt lat="47.691980134695768" lon="12.047180598601699">
        <ele>1150.569999999999936</ele>
        <time>2015-03-14T07:54:14Z</time>
      </trkpt>
      <trkpt lat="47.69198214635253" lon="12.047179760411382">
        <ele>1155.259999999999991</ele>
        <time>2015-03-14T07:54:15Z</time>
      </trkpt>
      <trkpt lat="47.691984325647354" lon="12.047178000211716">
        <ele>1148.589999999999918</ele>
        <time>2015-03-14T07:54:16Z</time>
      </trkpt>
      <trkpt lat="47.691986504942179" lon="12.047177748754621">
        <ele>1154.269999999999982</ele>
        <time>2015-03-14T07:54:17Z</time>
      </trkpt>
      <trkpt lat="47.691989103332162" lon="12.047174982726574">
        <ele>1151.190000000000055</ele>
        <time>2015-03-14T07:54:19Z</time>
      </trkpt>
      <trkpt lat="47.692003352567554" lon="12.047158721834421">
        <ele>1151.849999999999909</ele>
        <time>2015-03-14T07:54:58Z</time>
      </trkpt>
      <trkpt lat="47.69199974834919" lon="12.047159895300865">
        <ele>1152.029999999999973</ele>
        <time>2015-03-14T07:55:22Z</time>
      </trkpt>
      <trkpt lat="47.691997569054365" lon="12.04716257750988">
        <ele>1152.329999999999927</ele>
        <time>2015-03-14T07:55:45Z</time>
      </trkpt>
      <trkpt lat="47.692006872966886" lon="12.04715914092958">
        <ele>1152.700000000000045</ele>
        <time>2015-03-14T07:56:10Z</time>
      </trkpt>
      <trkpt lat="47.692032689228654" lon="12.047107927501202">
        <ele>1151.970000000000027</ele>
        <time>2015-03-14T07:56:30Z</time>
      </trkpt>
      <trkpt lat="47.692037802189589" lon="12.046998040750623">
        <ele>1155.220000000000027</ele>
        <time>2015-03-14T07:56:43Z</time>
      </trkpt>
      <trkpt lat="47.692039143294096" lon="12.046956215053797">
        <ele>1156.410000000000082</ele>
        <time>2015-03-14T07:56:48Z</time>
      </trkpt>
      <trkpt lat="47.692085495218635" lon="12.046837443485856">
        <ele>1158.8900000000001</ele>
        <time>2015-03-14T07:57:04Z</time>
      </trkpt>
      <trkpt lat="47.692138217389584" lon="12.04674725420773">
        <ele>1162.410000000000082</ele>
        <time>2015-03-14T07:57:18Z</time>
      </trkpt>
      <trkpt lat="47.692175600677729" lon="12.046706601977348">
        <ele>1164.029999999999973</ele>
        <time>2015-03-14T07:57:35Z</time>
      </trkpt>
      <trkpt lat="47.692171074450016" lon="12.046557907015085">
        <ele>1166.490000000000009</ele>
        <time>2015-03-14T07:57:53Z</time>
      </trkpt>
      <trkpt lat="47.692164452746511" lon="12.046409714967012">
        <ele>1168.8599999999999</ele>
        <time>2015-03-14T07:58:10Z</time>
      </trkpt>
      <trkpt lat="47.692125141620636" lon="12.046230677515268">
        <ele>1170.990000000000009</ele>
        <time>2015-03-14T07:58:26Z</time>
      </trkpt>
      <trkpt lat="47.692140145227313" lon="12.046113247051835">
        <ele>1174.119999999999891</ele>
        <time>2015-03-14T07:58:39Z</time>
      </trkpt>
      <trkpt lat="47.692150371149182" lon="12.046044263988733">
        <ele>1176.309999999999945</ele>
        <time>2015-03-14T07:58:55Z</time>
      </trkpt>
      <trkpt lat="47.692155903205276" lon="12.045946698635817">
        <ele>1178.460000000000036</ele>
        <time>2015-03-14T07:59:11Z</time>
      </trkpt>
      <trkpt lat="47.692256905138493" lon="12.045854581519961">
        <ele>1181.809999999999945</ele>
        <time>2015-03-14T07:59:33Z</time>
      </trkpt>
      <trkpt lat="47.692354135215282" lon="12.045754920691252">
        <ele>1184.440000000000055</ele>
        <time>2015-03-14T07:59:51Z</time>
      </trkpt>
      <trkpt lat="47.692334605380893" lon="12.045630030333996">
        <ele>1188.509999999999991</ele>
        <time>2015-03-14T08:00:07Z</time>
      </trkpt>
      <trkpt lat="47.692350195720792" lon="12.045539254322648">
        <ele>1189.799999999999955</ele>
        <time>2015-03-14T08:00:27Z</time>
      </trkpt>
      <trkpt lat="47.692351536825299" lon="12.045467756688595">
        <ele>1192.910000000000082</ele>
        <time>2015-03-14T08:00:36Z</time>
      </trkpt>
      <trkpt lat="47.692356817424297" lon="12.045348063111305">
        <ele>1195.200000000000045</ele>
        <time>2015-03-14T08:00:57Z</time>
      </trkpt>
      <trkpt lat="47.692420436069369" lon="12.045238427817822">
        <ele>1198.289999999999964</ele>
        <time>2015-03-14T08:01:15Z</time>
      </trkpt>
      <trkpt lat="47.692441139370203" lon="12.045162990689278">
        <ele>1200.660000000000082</ele>
        <time>2015-03-14T08:01:27Z</time>
      </trkpt>
      <trkpt lat="47.692450946196914" lon="12.045139521360397">
        <ele>1201.900000000000091</ele>
        <time>2015-03-14T08:01:31Z</time>
      </trkpt>
      <trkpt lat="47.692489000037313" lon="12.045065760612488">
        <ele>1204.950000000000045</ele>
        <time>2015-03-14T08:01:44Z</time>
      </trkpt>
      <trkpt lat="47.692551361396909" lon="12.044966015964746">
        <ele>1208.420000000000073</ele>
        <time>2015-03-14T08:02:00Z</time>
      </trkpt>
      <trkpt lat="47.692583212628961" lon="12.044901140034199">
        <ele>1210.619999999999891</ele>
        <time>2015-03-14T08:02:18Z</time>
      </trkpt>
      <trkpt lat="47.692605927586555" lon="12.044851100072265">
        <ele>1212.3599999999999</ele>
        <time>2015-03-14T08:02:25Z</time>
      </trkpt>
      <trkpt lat="47.692619590088725" lon="12.044701315462589">
        <ele>1215.460000000000036</ele>
        <time>2015-03-14T08:02:42Z</time>
      </trkpt>
      <trkpt lat="47.69261154346168" lon="12.044687904417515">
        <ele>1215.480000000000018</ele>
        <time>2015-03-14T08:03:08Z</time>
      </trkpt>
      <trkpt lat="47.692626714706421" lon="12.044620681554079">
        <ele>1216.710000000000036</ele>
        <time>2015-03-14T08:03:36Z</time>
      </trkpt>
      <trkpt lat="47.692635683342814" lon="12.044489672407508">
        <ele>1220.369999999999891</ele>
        <time>2015-03-14T08:03:51Z</time>
      </trkpt>
      <trkpt lat="47.692706007510424" lon="12.044372074306011">
        <ele>1223.460000000000036</ele>
        <time>2015-03-14T08:04:09Z</time>
      </trkpt>
      <trkpt lat="47.692821091040969" lon="12.044231845065951">
        <ele>1227.039999999999964</ele>
        <time>2015-03-14T08:04:28Z</time>
      </trkpt>
      <trkpt lat="47.692955117672682" lon="12.044110307469964">
        <ele>1229.869999999999891</ele>
        <time>2015-03-14T08:04:49Z</time>
      </trkpt>
      <trkpt lat="47.693052012473345" lon="12.044032858684659">
        <ele>1233.1400000000001</ele>
        <time>2015-03-14T08:05:05Z</time>
      </trkpt>
      <trkpt lat="47.693171538412571" lon="12.043941328302026">
        <ele>1236.180000000000064</ele>
        <time>2015-03-14T08:05:23Z</time>
      </trkpt>
      <trkpt lat="47.693270863965154" lon="12.043855749070644">
        <ele>1239.690000000000055</ele>
        <time>2015-03-14T08:05:39Z</time>
      </trkpt>
      <trkpt lat="47.693394413217902" lon="12.043741587549448">
        <ele>1241.980000000000018</ele>
        <time>2015-03-14T08:05:58Z</time>
      </trkpt>
      <trkpt lat="47.693422408774495" lon="12.043730020523071">
        <ele>1243.799999999999955</ele>
        <time>2015-03-14T08:06:02Z</time>
      </trkpt>
      <trkpt lat="47.693536067381501" lon="12.04364100471139">
        <ele>1245.150000000000091</ele>
        <time>2015-03-14T08:06:19Z</time>
      </trkpt>
      <trkpt lat="47.69368015229702" lon="12.043543355539441">
        <ele>1247.079999999999927</ele>
        <time>2015-03-14T08:06:37Z</time>
      </trkpt>
      <trkpt lat="47.693807473406196" lon="12.043444281443954">
        <ele>1248.319999999999936</ele>
        <time>2015-03-14T08:06:53Z</time>
      </trkpt>
      <trkpt lat="47.693932699039578" lon="12.043341435492039">
        <ele>1249.339999999999918</ele>
        <time>2015-03-14T08:07:10Z</time>
      </trkpt>
      <trkpt lat="47.694022050127387" lon="12.043157955631614">
        <ele>1251.920000000000073</ele>
        <time>2015-03-14T08:07:28Z</time>
      </trkpt>
      <trkpt lat="47.694031354039907" lon="12.043032227084041">
        <ele>1255</ele>
        <time>2015-03-14T08:07:43Z</time>
      </trkpt>
      <trkpt lat="47.694034958258271" lon="12.042898284271359">
        <ele>1258.170000000000073</ele>
        <time>2015-03-14T08:07:56Z</time>
      </trkpt>
      <trkpt lat="47.694039065390825" lon="12.042880095541477">
        <ele>1258.6099999999999</ele>
        <time>2015-03-14T08:08:14Z</time>
      </trkpt>
      <trkpt lat="47.694042082875967" lon="12.042811699211597">
        <ele>1258.329999999999927</ele>
        <time>2015-03-14T08:08:20Z</time>
      </trkpt>
      <trkpt lat="47.694109557196498" lon="12.042652862146497">
        <ele>1261.059999999999945</ele>
        <time>2015-03-14T08:08:37Z</time>
      </trkpt>
      <trkpt lat="47.69420737400651" lon="12.042681276798248">
        <ele>1263.240000000000009</ele>
        <time>2015-03-14T08:08:53Z</time>
      </trkpt>
      <trkpt lat="47.694347519427538" lon="12.042649509385228">
        <ele>1265.3900000000001</ele>
        <time>2015-03-14T08:09:11Z</time>
      </trkpt>
      <trkpt lat="47.694483222439885" lon="12.042597206309438">
        <ele>1268.839999999999918</ele>
        <time>2015-03-14T08:09:30Z</time>
      </trkpt>
      <trkpt lat="47.6944893412292" lon="12.042590081691742">
        <ele>1268.829999999999927</ele>
        <time>2015-03-14T08:09:31Z</time>
      </trkpt>
      <trkpt lat="47.694596964865923" lon="12.042514476925135">
        <ele>1271.029999999999973</ele>
        <time>2015-03-14T08:09:46Z</time>
      </trkpt>
      <trkpt lat="47.694687657058239" lon="12.042436022311449">
        <ele>1272.980000000000018</ele>
        <time>2015-03-14T08:10:00Z</time>
      </trkpt>
      <trkpt lat="47.694801399484277" lon="12.042368212714791">
        <ele>1275.869999999999891</ele>
        <time>2015-03-14T08:10:16Z</time>
      </trkpt>
      <trkpt lat="47.694829227402806" lon="12.042361758649349">
        <ele>1276.509999999999991</ele>
        <time>2015-03-14T08:10:28Z</time>
      </trkpt>
      <trkpt lat="47.694881949573755" lon="12.042279280722141">
        <ele>1278.349999999999909</ele>
        <time>2015-03-14T08:10:43Z</time>
      </trkpt>
      <trkpt lat="47.69490365870297" lon="12.042137626558542">
        <ele>1281.559999999999945</ele>
        <time>2015-03-14T08:10:58Z</time>
      </trkpt>
      <trkpt lat="47.694915812462568" lon="12.042088508605957">
        <ele>1283.230000000000018</ele>
        <time>2015-03-14T08:11:17Z</time>
      </trkpt>
      <trkpt lat="47.694926206022501" lon="12.042041067034006">
        <ele>1284.1400000000001</ele>
        <time>2015-03-14T08:11:34Z</time>
      </trkpt>
      <trkpt lat="47.694964008405805" lon="12.041894048452377">
        <ele>1287.369999999999891</ele>
        <time>2015-03-14T08:11:49Z</time>
      </trkpt>
      <trkpt lat="47.694970881566405" lon="12.041883403435349">
        <ele>1287.3599999999999</ele>
        <time>2015-03-14T08:11:50Z</time>
      </trkpt>
      <trkpt lat="47.695037936791778" lon="12.041779467836022">
        <ele>1291.259999999999991</ele>
        <time>2015-03-14T08:12:05Z</time>
      </trkpt>
      <trkpt lat="47.695128964260221" lon="12.041841242462397">
        <ele>1294.670000000000073</ele>
        <time>2015-03-14T08:12:27Z</time>
      </trkpt>
      <trkpt lat="47.695153774693608" lon="12.041880805045366">
        <ele>1295.329999999999927</ele>
        <time>2015-03-14T08:12:47Z</time>
      </trkpt>
      <trkpt lat="47.695192582905293" lon="12.041941490024328">
        <ele>1298.430000000000064</ele>
        <time>2015-03-14T08:13:05Z</time>
      </trkpt>
      <trkpt lat="47.695267014205456" lon="12.041978454217315">
        <ele>1300.970000000000027</ele>
        <time>2015-03-14T08:13:26Z</time>
      </trkpt>
      <trkpt lat="47.695278748869896" lon="12.041905699297786">
        <ele>1302.509999999999991</ele>
        <time>2015-03-14T08:13:43Z</time>
      </trkpt>
      <trkpt lat="47.695307834073901" lon="12.041789693757892">
        <ele>1304.3900000000001</ele>
        <time>2015-03-14T08:14:01Z</time>
      </trkpt>
      <trkpt lat="47.69533465616405" lon="12.041662624105811">
        <ele>1307.910000000000082</ele>
        <time>2015-03-14T08:14:16Z</time>
      </trkpt>
      <trkpt lat="47.69535762257874" lon="12.041526418179274">
        <ele>1308.990000000000009</ele>
        <time>2015-03-14T08:14:35Z</time>
      </trkpt>
      <trkpt lat="47.695352761074901" lon="12.041536308825016">
        <ele>1309.049999999999955</ele>
        <time>2015-03-14T08:15:00Z</time>
      </trkpt>
      <trkpt lat="47.695332057774067" lon="12.041497081518173">
        <ele>1309.8599999999999</ele>
        <time>2015-03-14T08:15:28Z</time>
      </trkpt>
      <trkpt lat="47.695361310616136" lon="12.041431199759245">
        <ele>1312.460000000000036</ele>
        <time>2015-03-14T08:15:38Z</time>
      </trkpt>
      <trkpt lat="47.695422414690256" lon="12.041502362117171">
        <ele>1315.740000000000009</ele>
        <time>2015-03-14T08:15:54Z</time>
      </trkpt>
      <trkpt lat="47.695459462702274" lon="12.041391637176275">
        <ele>1317.819999999999936</ele>
        <time>2015-03-14T08:16:14Z</time>
      </trkpt>
      <trkpt lat="47.69552324898541" lon="12.041434133425355">
        <ele>1320.960000000000036</ele>
        <time>2015-03-14T08:16:30Z</time>
      </trkpt>
      <trkpt lat="47.695600111037493" lon="12.041438492015004">
        <ele>1324.019999999999982</ele>
        <time>2015-03-14T08:16:46Z</time>
      </trkpt>
      <trkpt lat="47.695651156827807" lon="12.04143195413053">
        <ele>1328.099999999999909</ele>
        <time>2015-03-14T08:17:01Z</time>
      </trkpt>
      <trkpt lat="47.695670267567039" lon="12.041408317163587">
        <ele>1326.720000000000027</ele>
        <time>2015-03-14T08:17:20Z</time>
      </trkpt>
      <trkpt lat="47.695658868178725" lon="12.041414603590965">
        <ele>1327.3599999999999</ele>
        <time>2015-03-14T08:18:00Z</time>
      </trkpt>
      <trkpt lat="47.695647133514285" lon="12.041423069313169">
        <ele>1326.279999999999973</ele>
        <time>2015-03-14T08:18:41Z</time>
      </trkpt>
      <trkpt lat="47.695628860965371" lon="12.041426924988627">
        <ele>1326.849999999999909</ele>
        <time>2015-03-14T08:19:18Z</time>
      </trkpt>
      <trkpt lat="47.695631794631481" lon="12.041385686025023">
        <ele>1326.460000000000036</ele>
        <time>2015-03-14T08:19:57Z</time>
      </trkpt>
      <trkpt lat="47.695694491267204" lon="12.041266830638051">
        <ele>1328.940000000000055</ele>
        <time>2015-03-14T08:20:11Z</time>
      </trkpt>
      <trkpt lat="47.695749644190073" lon="12.041114866733551">
        <ele>1332.069999999999936</ele>
        <time>2015-03-14T08:20:28Z</time>
      </trkpt>
      <trkpt lat="47.695793313905597" lon="12.041006069630384">
        <ele>1335.240000000000009</ele>
        <time>2015-03-14T08:20:43Z</time>
      </trkpt>
      <trkpt lat="47.695858608931303" lon="12.040857123211026">
        <ele>1338.519999999999982</ele>
        <time>2015-03-14T08:21:03Z</time>
      </trkpt>
      <trkpt lat="47.695934046059847" lon="12.040736926719546">
        <ele>1341.579999999999927</ele>
        <time>2015-03-14T08:21:20Z</time>
      </trkpt>
      <trkpt lat="47.696005376055837" lon="12.040632320567966">
        <ele>1345.1400000000001</ele>
        <time>2015-03-14T08:21:39Z</time>
      </trkpt>
      <trkpt lat="47.696100594475865" lon="12.040533917024732">
        <ele>1348.170000000000073</ele>
        <time>2015-03-14T08:21:59Z</time>
      </trkpt>
      <trkpt lat="47.696185922250152" lon="12.04047423787415">
        <ele>1352.150000000000091</ele>
        <time>2015-03-14T08:22:15Z</time>
      </trkpt>
      <trkpt lat="47.696280386298895" lon="12.040370218455791">
        <ele>1355.579999999999927</ele>
        <time>2015-03-14T08:22:36Z</time>
      </trkpt>
      <trkpt lat="47.696325480937958" lon="12.040294781327248">
        <ele>1356.009999999999991</ele>
        <time>2015-03-14T08:22:55Z</time>
      </trkpt>
      <trkpt lat="47.696385243907571" lon="12.040246333926916">
        <ele>1359.25</ele>
        <time>2015-03-14T08:23:06Z</time>
      </trkpt>
      <trkpt lat="47.696458753198385" lon="12.040289249271154">
        <ele>1362.259999999999991</ele>
        <time>2015-03-14T08:23:23Z</time>
      </trkpt>
      <trkpt lat="47.696520024910569" lon="12.040339121595025">
        <ele>1365.799999999999955</ele>
        <time>2015-03-14T08:23:40Z</time>
      </trkpt>
      <trkpt lat="47.696595881134272" lon="12.040249602869153">
        <ele>1368.869999999999891</ele>
        <time>2015-03-14T08:23:58Z</time>
      </trkpt>
      <trkpt lat="47.696600910276175" lon="12.04023870639503">
        <ele>1369.180000000000064</ele>
        <time>2015-03-14T08:24:18Z</time>
      </trkpt>
      <trkpt lat="47.696595545858145" lon="12.040250692516565">
        <ele>1369.700000000000045</ele>
        <time>2015-03-14T08:24:45Z</time>
      </trkpt>
      <trkpt lat="47.696597473695874" lon="12.040250357240438">
        <ele>1366.329999999999927</ele>
        <time>2015-03-14T08:24:53Z</time>
      </trkpt>
      <trkpt lat="47.696598311886191" lon="12.040253626182675">
        <ele>1371.569999999999936</ele>
        <time>2015-03-14T08:24:55Z</time>
      </trkpt>
      <trkpt lat="47.696598647162318" lon="12.040253123268485">
        <ele>1369.279999999999973</ele>
        <time>2015-03-14T08:24:56Z</time>
      </trkpt>
      <trkpt lat="47.696606693789363" lon="12.040145248174667">
        <ele>1372.759999999999991</ele>
        <time>2015-03-14T08:25:10Z</time>
      </trkpt>
      <trkpt lat="47.696613566949964" lon="12.040090933442116">
        <ele>1373.670000000000073</ele>
        <time>2015-03-14T08:25:17Z</time>
      </trkpt>
      <trkpt lat="47.69663343206048" lon="12.039962355047464">
        <ele>1377.180000000000064</ele>
        <time>2015-03-14T08:25:33Z</time>
      </trkpt>
      <trkpt lat="47.696684813126922" lon="12.039933102205396">
        <ele>1379.160000000000082</ele>
        <time>2015-03-14T08:25:53Z</time>
      </trkpt>
      <trkpt lat="47.696758657693863" lon="12.039992697536945">
        <ele>1382.720000000000027</ele>
        <time>2015-03-14T08:26:10Z</time>
      </trkpt>
      <trkpt lat="47.696835687384009" lon="12.03999781049788">
        <ele>1384.990000000000009</ele>
        <time>2015-03-14T08:26:30Z</time>
      </trkpt>
      <trkpt lat="47.696920679882169" lon="12.040004264563322">
        <ele>1388.160000000000082</ele>
        <time>2015-03-14T08:26:49Z</time>
      </trkpt>
      <trkpt lat="47.696929816156626" lon="12.040005354210734">
        <ele>1384.920000000000073</ele>
        <time>2015-03-14T08:26:50Z</time>
      </trkpt>
      <trkpt lat="47.696930821985006" lon="12.040005354210734">
        <ele>1388.960000000000036</ele>
        <time>2015-03-14T08:26:51Z</time>
      </trkpt>
      <trkpt lat="47.696967786177993" lon="12.039983896538615">
        <ele>1389.200000000000045</ele>
        <time>2015-03-14T08:27:08Z</time>
      </trkpt>
      <trkpt lat="47.69695395603776" lon="12.039880296215415">
        <ele>1392.3900000000001</ele>
        <time>2015-03-14T08:27:27Z</time>
      </trkpt>
      <trkpt lat="47.696984969079494" lon="12.039929581806064">
        <ele>1392.410000000000082</ele>
        <time>2015-03-14T08:27:48Z</time>
      </trkpt>
      <trkpt lat="47.697033835574985" lon="12.039978448301554">
        <ele>1395.039999999999964</ele>
        <time>2015-03-14T08:28:07Z</time>
      </trkpt>
      <trkpt lat="47.697092341259122" lon="12.039971994236112">
        <ele>1396.119999999999891</ele>
        <time>2015-03-14T08:28:27Z</time>
      </trkpt>
      <trkpt lat="47.697107009589672" lon="12.039872920140624">
        <ele>1399.299999999999955</ele>
        <time>2015-03-14T08:28:40Z</time>
      </trkpt>
      <trkpt lat="47.697097035124898" lon="12.039774768054485">
        <ele>1402.3599999999999</ele>
        <time>2015-03-14T08:28:59Z</time>
      </trkpt>
      <trkpt lat="47.697175992652774" lon="12.039719363674521">
        <ele>1403.829999999999927</ele>
        <time>2015-03-14T08:29:20Z</time>
      </trkpt>
      <trkpt lat="47.697270624339581" lon="12.039739983156323">
        <ele>1407.150000000000091</ele>
        <time>2015-03-14T08:29:35Z</time>
      </trkpt>
      <trkpt lat="47.697343211621046" lon="12.039763117209077">
        <ele>1410.279999999999973</ele>
        <time>2015-03-14T08:29:58Z</time>
      </trkpt>
      <trkpt lat="47.697354024276137" lon="12.039769990369678">
        <ele>1411.019999999999982</ele>
        <time>2015-03-14T08:30:06Z</time>
      </trkpt>
      <trkpt lat="47.697418481111526" lon="12.039856910705566">
        <ele>1413.950000000000045</ele>
        <time>2015-03-14T08:30:25Z</time>
      </trkpt>
      <trkpt lat="47.697435161098838" lon="12.039846433326602">
        <ele>1415.839999999999918</ele>
        <time>2015-03-14T08:30:46Z</time>
      </trkpt>
      <trkpt lat="47.697432562708855" lon="12.039691954851151">
        <ele>1418.589999999999918</ele>
        <time>2015-03-14T08:31:04Z</time>
      </trkpt>
      <trkpt lat="47.697394005954266" lon="12.039585672318935">
        <ele>1420.220000000000027</ele>
        <time>2015-03-14T08:31:21Z</time>
      </trkpt>
      <trkpt lat="47.69736684858799" lon="12.039465894922614">
        <ele>1421.700000000000045</ele>
        <time>2015-03-14T08:31:42Z</time>
      </trkpt>
      <trkpt lat="47.697358215227723" lon="12.039404790848494">
        <ele>1424.8599999999999</ele>
        <time>2015-03-14T08:31:55Z</time>
      </trkpt>
      <trkpt lat="47.697386210784316" lon="12.039416944608092">
        <ele>1423.079999999999927</ele>
        <time>2015-03-14T08:32:18Z</time>
      </trkpt>
      <trkpt lat="47.697438849136233" lon="12.039424739778042">
        <ele>1425.430000000000064</ele>
        <time>2015-03-14T08:32:40Z</time>
      </trkpt>
      <trkpt lat="47.697535576298833" lon="12.039423566311598">
        <ele>1428.769999999999982</ele>
        <time>2015-03-14T08:32:59Z</time>
      </trkpt>
      <trkpt lat="47.697598775848746" lon="12.039444437250495">
        <ele>1431.210000000000036</ele>
        <time>2015-03-14T08:33:25Z</time>
      </trkpt>
      <trkpt lat="47.697691731154919" lon="12.03946522437036">
        <ele>1434.430000000000064</ele>
        <time>2015-03-14T08:33:45Z</time>
      </trkpt>
      <trkpt lat="47.697765659540892" lon="12.039432367309928">
        <ele>1437.650000000000091</ele>
        <time>2015-03-14T08:34:09Z</time>
      </trkpt>
      <trkpt lat="47.697794660925865" lon="12.039312086999416">
        <ele>1439.930000000000064</ele>
        <time>2015-03-14T08:34:25Z</time>
      </trkpt>
      <trkpt lat="47.697811173275113" lon="12.039245618507266">
        <ele>1443.130000000000109</ele>
        <time>2015-03-14T08:34:36Z</time>
      </trkpt>
      <trkpt lat="47.697837743908167" lon="12.039200775325298">
        <ele>1444.240000000000009</ele>
        <time>2015-03-14T08:34:50Z</time>
      </trkpt>
      <trkpt lat="47.697907481342554" lon="12.03907722607255">
        <ele>1448.230000000000018</ele>
        <time>2015-03-14T08:35:07Z</time>
      </trkpt>
      <trkpt lat="47.697975123301148" lon="12.03912366181612">
        <ele>1450.019999999999982</ele>
        <time>2015-03-14T08:35:27Z</time>
      </trkpt>
      <trkpt lat="47.698036981746554" lon="12.039181916043162">
        <ele>1453.049999999999955</ele>
        <time>2015-03-14T08:35:45Z</time>
      </trkpt>
      <trkpt lat="47.698136558756232" lon="12.03922969289124">
        <ele>1456.819999999999936</ele>
        <time>2015-03-14T08:36:03Z</time>
      </trkpt>
      <trkpt lat="47.698139911517501" lon="12.039228603243828">
        <ele>1455.269999999999982</ele>
        <time>2015-03-14T08:36:06Z</time>
      </trkpt>
      <trkpt lat="47.698151897639036" lon="12.039175797253847">
        <ele>1458.299999999999955</ele>
        <time>2015-03-14T08:36:21Z</time>
      </trkpt>
      <trkpt lat="47.698123566806316" lon="12.039066581055522">
        <ele>1460.319999999999936</ele>
        <time>2015-03-14T08:36:41Z</time>
      </trkpt>
      <trkpt lat="47.698113424703479" lon="12.038989216089249">
        <ele>1463.160000000000082</ele>
        <time>2015-03-14T08:37:00Z</time>
      </trkpt>
      <trkpt lat="47.698125327005982" lon="12.038970272988081">
        <ele>1463.220000000000027</ele>
        <time>2015-03-14T08:37:05Z</time>
      </trkpt>
      <trkpt lat="47.698078891262412" lon="12.038898020982742">
        <ele>1465.25</ele>
        <time>2015-03-14T08:37:25Z</time>
      </trkpt>
      <trkpt lat="47.698111329227686" lon="12.038860553875566">
        <ele>1468.589999999999918</ele>
        <time>2015-03-14T08:37:51Z</time>
      </trkpt>
      <trkpt lat="47.698161117732525" lon="12.038880586624146">
        <ele>1470.480000000000018</ele>
        <time>2015-03-14T08:38:10Z</time>
      </trkpt>
      <trkpt lat="47.698193220421672" lon="12.038887878879905">
        <ele>1471.579999999999927</ele>
        <time>2015-03-14T08:38:30Z</time>
      </trkpt>
      <trkpt lat="47.69822683185339" lon="12.038891315460205">
        <ele>1473.599999999999909</ele>
        <time>2015-03-14T08:38:42Z</time>
      </trkpt>
      <trkpt lat="47.69827519543469" lon="12.038899529725313">
        <ele>1475.569999999999936</ele>
        <time>2015-03-14T08:39:01Z</time>
      </trkpt>
      <trkpt lat="47.698314758017659" lon="12.038921909406781">
        <ele>1477.079999999999927</ele>
        <time>2015-03-14T08:39:18Z</time>
      </trkpt>
      <trkpt lat="47.698360607028008" lon="12.038875138387084">
        <ele>1480.490000000000009</ele>
        <time>2015-03-14T08:39:37Z</time>
      </trkpt>
      <trkpt lat="47.69836169667542" lon="12.038755612447858">
        <ele>1482.660000000000082</ele>
        <time>2015-03-14T08:39:52Z</time>
      </trkpt>
      <trkpt lat="47.698322972282767" lon="12.038660896942019">
        <ele>1484.1400000000001</ele>
        <time>2015-03-14T08:40:06Z</time>
      </trkpt>
      <trkpt lat="47.698301849886775" lon="12.038577329367399">
        <ele>1486.25</ele>
        <time>2015-03-14T08:40:25Z</time>
      </trkpt>
      <trkpt lat="47.698354739695787" lon="12.038590153679252">
        <ele>1489.289999999999964</ele>
        <time>2015-03-14T08:40:33Z</time>
      </trkpt>
      <trkpt lat="47.698426991701126" lon="12.038620160892606">
        <ele>1491.269999999999982</ele>
        <time>2015-03-14T08:40:55Z</time>
      </trkpt>
      <trkpt lat="47.698498154059052" lon="12.038680762052536">
        <ele>1492.8900000000001</ele>
        <time>2015-03-14T08:41:15Z</time>
      </trkpt>
      <trkpt lat="47.698499914258718" lon="12.038592416793108">
        <ele>1495.299999999999955</ele>
        <time>2015-03-14T08:41:30Z</time>
      </trkpt>
      <trkpt lat="47.698508463799953" lon="12.038487391546369">
        <ele>1498.430000000000064</ele>
        <time>2015-03-14T08:41:46Z</time>
      </trkpt>
      <trkpt lat="47.698521874845028" lon="12.038443302735686">
        <ele>1499.990000000000009</ele>
        <time>2015-03-14T08:42:09Z</time>
      </trkpt>
      <trkpt lat="47.698581134900451" lon="12.038472387939692">
        <ele>1501.809999999999945</ele>
        <time>2015-03-14T08:42:30Z</time>
      </trkpt>
      <trkpt lat="47.698611561208963" lon="12.038485715165734">
        <ele>1502.5</ele>
        <time>2015-03-14T08:42:49Z</time>
      </trkpt>
      <trkpt lat="47.698598317801952" lon="12.038448750972748">
        <ele>1503.730000000000018</ele>
        <time>2015-03-14T08:42:55Z</time>
      </trkpt>
      <trkpt lat="47.698593875393271" lon="12.038439111784101">
        <ele>1503.970000000000027</ele>
        <time>2015-03-14T08:43:08Z</time>
      </trkpt>
      <trkpt lat="47.698596222326159" lon="12.038431316614151">
        <ele>1503.059999999999945</ele>
        <time>2015-03-14T08:43:36Z</time>
      </trkpt>
      <trkpt lat="47.698608543723822" lon="12.038433915004134">
        <ele>1503.190000000000055</ele>
        <time>2015-03-14T08:44:02Z</time>
      </trkpt>
      <trkpt lat="47.69860309548676" lon="12.038447577506304">
        <ele>1503.25</ele>
        <time>2015-03-14T08:44:32Z</time>
      </trkpt>
      <trkpt lat="47.698602257296443" lon="12.038462916389108">
        <ele>1503.029999999999973</ele>
        <time>2015-03-14T08:44:55Z</time>
      </trkpt>
      <trkpt lat="47.698609801009297" lon="12.038467358797789">
        <ele>1504.319999999999936</ele>
        <time>2015-03-14T08:44:57Z</time>
      </trkpt>
      <trkpt lat="47.698594629764557" lon="12.038388317450881">
        <ele>1504.539999999999964</ele>
        <time>2015-03-14T08:45:14Z</time>
      </trkpt>
      <trkpt lat="47.698586583137512" lon="12.038324447348714">
        <ele>1507.910000000000082</ele>
        <time>2015-03-14T08:45:30Z</time>
      </trkpt>
      <trkpt lat="47.698611142113805" lon="12.038284046575427">
        <ele>1509.789999999999964</ele>
        <time>2015-03-14T08:45:53Z</time>
      </trkpt>
      <trkpt lat="47.698601083829999" lon="12.038243981078267">
        <ele>1511.220000000000027</ele>
        <time>2015-03-14T08:46:11Z</time>
      </trkpt>
      <trkpt lat="47.698596557602286" lon="12.038144655525684">
        <ele>1513.150000000000091</ele>
        <time>2015-03-14T08:46:31Z</time>
      </trkpt>
      <trkpt lat="47.698637964203954" lon="12.038152366876602">
        <ele>1516.460000000000036</ele>
        <time>2015-03-14T08:46:44Z</time>
      </trkpt>
      <trkpt lat="47.698649615049362" lon="12.038179524242878">
        <ele>1515.970000000000027</ele>
        <time>2015-03-14T08:47:07Z</time>
      </trkpt>
      <trkpt lat="47.698678197339177" lon="12.03818597830832">
        <ele>1517.910000000000082</ele>
        <time>2015-03-14T08:47:13Z</time>
      </trkpt>
      <trkpt lat="47.698706611990929" lon="12.038199556991458">
        <ele>1519.059999999999945</ele>
        <time>2015-03-14T08:47:35Z</time>
      </trkpt>
      <trkpt lat="47.698764530941844" lon="12.038203664124012">
        <ele>1521.170000000000073</ele>
        <time>2015-03-14T08:47:55Z</time>
      </trkpt>
      <trkpt lat="47.698781546205282" lon="12.038203496485949">
        <ele>1522.710000000000036</ele>
        <time>2015-03-14T08:48:02Z</time>
      </trkpt>
      <trkpt lat="47.698786994442344" lon="12.038204669952393">
        <ele>1521.549999999999955</ele>
        <time>2015-03-14T08:48:04Z</time>
      </trkpt>
      <trkpt lat="47.698802584782243" lon="12.038190336897969">
        <ele>1522.740000000000009</ele>
        <time>2015-03-14T08:48:24Z</time>
      </trkpt>
      <trkpt lat="47.698833765462041" lon="12.038199556991458">
        <ele>1525.380000000000109</ele>
        <time>2015-03-14T08:48:43Z</time>
      </trkpt>
      <trkpt lat="47.698873747140169" lon="12.038239119574428">
        <ele>1527.009999999999991</ele>
        <time>2015-03-14T08:48:58Z</time>
      </trkpt>
      <trkpt lat="47.698917500674725" lon="12.038293853402138">
        <ele>1528.900000000000091</ele>
        <time>2015-03-14T08:49:10Z</time>
      </trkpt>
      <trkpt lat="47.698951615020633" lon="12.038265019655228">
        <ele>1530.930000000000064</ele>
        <time>2015-03-14T08:49:32Z</time>
      </trkpt>
      <trkpt lat="47.698946502059698" lon="12.038123281672597">
        <ele>1534.220000000000027</ele>
        <time>2015-03-14T08:49:45Z</time>
      </trkpt>
      <trkpt lat="47.698923787102103" lon="12.037984812632203">
        <ele>1536.119999999999891</ele>
        <time>2015-03-14T08:50:04Z</time>
      </trkpt>
      <trkpt lat="47.698942730203271" lon="12.037995290011168">
        <ele>1537.150000000000091</ele>
        <time>2015-03-14T08:50:28Z</time>
      </trkpt>
      <trkpt lat="47.699010204523802" lon="12.038057986646891">
        <ele>1540.170000000000073</ele>
        <time>2015-03-14T08:50:47Z</time>
      </trkpt>
      <trkpt lat="47.699038200080395" lon="12.03810878098011">
        <ele>1540.710000000000036</ele>
        <time>2015-03-14T08:51:07Z</time>
      </trkpt>
      <trkpt lat="47.699048090726137" lon="12.038071230053902">
        <ele>1541.670000000000073</ele>
        <time>2015-03-14T08:51:27Z</time>
      </trkpt>
      <trkpt lat="47.699049264192581" lon="12.037987494841218">
        <ele>1543.789999999999964</ele>
        <time>2015-03-14T08:51:47Z</time>
      </trkpt>
      <trkpt lat="47.699049348011613" lon="12.037939550355077">
        <ele>1544.75</ele>
        <time>2015-03-14T08:52:08Z</time>
      </trkpt>
      <trkpt lat="47.699065189808607" lon="12.03791331499815">
        <ele>1545.259999999999991</ele>
        <time>2015-03-14T08:52:24Z</time>
      </trkpt>
      <trkpt lat="47.699071140959859" lon="12.037862436845899">
        <ele>1548.380000000000109</ele>
        <time>2015-03-14T08:52:42Z</time>
      </trkpt>
      <trkpt lat="47.699070135131478" lon="12.037808708846569">
        <ele>1549.220000000000027</ele>
        <time>2015-03-14T08:53:02Z</time>
      </trkpt>
      <trkpt lat="47.699091257527471" lon="12.037770068272948">
        <ele>1552.380000000000109</ele>
        <time>2015-03-14T08:53:19Z</time>
      </trkpt>
      <trkpt lat="47.699130568653345" lon="12.037774259224534">
        <ele>1555.5</ele>
        <time>2015-03-14T08:53:39Z</time>
      </trkpt>
      <trkpt lat="47.699133502319455" lon="12.037776270881295">
        <ele>1554.099999999999909</ele>
        <time>2015-03-14T08:53:42Z</time>
      </trkpt>
      <trkpt lat="47.69918262027204" lon="12.037797477096319">
        <ele>1557.180000000000064</ele>
        <time>2015-03-14T08:53:53Z</time>
      </trkpt>
      <trkpt lat="47.699193768203259" lon="12.037804685533047">
        <ele>1556.160000000000082</ele>
        <time>2015-03-14T08:54:04Z</time>
      </trkpt>
      <trkpt lat="47.69922218285501" lon="12.037825891748071">
        <ele>1559.289999999999964</ele>
        <time>2015-03-14T08:54:16Z</time>
      </trkpt>
      <trkpt lat="47.69925881177187" lon="12.03787081874907">
        <ele>1560.440000000000055</ele>
        <time>2015-03-14T08:54:37Z</time>
      </trkpt>
      <trkpt lat="47.699292926117778" lon="12.037880457937717">
        <ele>1563.049999999999955</ele>
        <time>2015-03-14T08:54:57Z</time>
      </trkpt>
      <trkpt lat="47.69930868409574" lon="12.037850115448236">
        <ele>1563.839999999999918</ele>
        <time>2015-03-14T08:55:20Z</time>
      </trkpt>
      <trkpt lat="47.699312204495072" lon="12.037791861221194">
        <ele>1565.170000000000073</ele>
        <time>2015-03-14T08:55:42Z</time>
      </trkpt>
      <trkpt lat="47.699330393224955" lon="12.037718100473285">
        <ele>1568.869999999999891</ele>
        <time>2015-03-14T08:55:55Z</time>
      </trkpt>
      <trkpt lat="47.699328800663352" lon="12.037710221484303">
        <ele>1565.569999999999936</ele>
        <time>2015-03-14T08:55:58Z</time>
      </trkpt>
      <trkpt lat="47.699326789006591" lon="12.037717010825872">
        <ele>1569.240000000000009</ele>
        <time>2015-03-14T08:56:02Z</time>
      </trkpt>
      <trkpt lat="47.699326286092401" lon="12.037681890651584">
        <ele>1567.690000000000055</ele>
        <time>2015-03-14T08:56:23Z</time>
      </trkpt>
      <trkpt lat="47.699343049898744" lon="12.037659091874957">
        <ele>1569.880000000000109</ele>
        <time>2015-03-14T08:56:42Z</time>
      </trkpt>
      <trkpt lat="47.699395688250661" lon="12.03771885484457">
        <ele>1571.269999999999982</ele>
        <time>2015-03-14T08:57:03Z</time>
      </trkpt>
      <trkpt lat="47.699429299682379" lon="12.037761434912682">
        <ele>1574.549999999999955</ele>
        <time>2015-03-14T08:57:15Z</time>
      </trkpt>
      <trkpt lat="47.699446566402912" lon="12.037775767967105">
        <ele>1575.269999999999982</ele>
        <time>2015-03-14T08:57:25Z</time>
      </trkpt>
      <trkpt lat="47.699493253603578" lon="12.037856318056583">
        <ele>1576.690000000000055</ele>
        <time>2015-03-14T08:57:41Z</time>
      </trkpt>
      <trkpt lat="47.6995266135782" lon="12.037926558405161">
        <ele>1579.059999999999945</ele>
        <time>2015-03-14T08:58:01Z</time>
      </trkpt>
      <trkpt lat="47.699520159512758" lon="12.037929324433208">
        <ele>1579.130000000000109</ele>
        <time>2015-03-14T08:58:23Z</time>
      </trkpt>
      <trkpt lat="47.699534744024277" lon="12.037918092682958">
        <ele>1579.599999999999909</ele>
        <time>2015-03-14T08:58:48Z</time>
      </trkpt>
      <trkpt lat="47.69957447424531" lon="12.037926474586129">
        <ele>1581.720000000000027</ele>
        <time>2015-03-14T08:58:57Z</time>
      </trkpt>
      <trkpt lat="47.69965753890574" lon="12.037993781268597">
        <ele>1584.539999999999964</ele>
        <time>2015-03-14T08:59:17Z</time>
      </trkpt>
      <trkpt lat="47.699678493663669" lon="12.038001827895641">
        <ele>1585.710000000000036</ele>
        <time>2015-03-14T08:59:33Z</time>
      </trkpt>
      <trkpt lat="47.699742363765836" lon="12.038045916706324">
        <ele>1588.519999999999982</ele>
        <time>2015-03-14T08:59:45Z</time>
      </trkpt>
      <trkpt lat="47.699785949662328" lon="12.038095956668258">
        <ele>1588.549999999999955</ele>
        <time>2015-03-14T09:00:06Z</time>
      </trkpt>
      <trkpt lat="47.699836576357484" lon="12.038136525079608">
        <ele>1591.410000000000082</ele>
        <time>2015-03-14T09:00:22Z</time>
      </trkpt>
      <trkpt lat="47.699915198609233" lon="12.038210956379771">
        <ele>1594.089999999999918</ele>
        <time>2015-03-14T09:00:42Z</time>
      </trkpt>
      <trkpt lat="47.699930537492037" lon="12.038198048248887">
        <ele>1593.559999999999945</ele>
        <time>2015-03-14T09:01:05Z</time>
      </trkpt>
      <trkpt lat="47.699938081204891" lon="12.038190923631191">
        <ele>1593.940000000000055</ele>
        <time>2015-03-14T09:01:26Z</time>
      </trkpt>
      <trkpt lat="47.699947636574507" lon="12.038239203393459">
        <ele>1594.970000000000027</ele>
        <time>2015-03-14T09:01:47Z</time>
      </trkpt>
      <trkpt lat="47.699969429522753" lon="12.038261583074927">
        <ele>1595.3599999999999</ele>
        <time>2015-03-14T09:02:02Z</time>
      </trkpt>
      <trkpt lat="47.700031958520412" lon="12.038312712684274">
        <ele>1598.3900000000001</ele>
        <time>2015-03-14T09:02:17Z</time>
      </trkpt>
      <trkpt lat="47.700087446719408" lon="12.038373062387109">
        <ele>1599.599999999999909</ele>
        <time>2015-03-14T09:02:36Z</time>
      </trkpt>
      <trkpt lat="47.700107814744115" lon="12.038318663835526">
        <ele>1601</ele>
        <time>2015-03-14T09:02:52Z</time>
      </trkpt>
      <trkpt lat="47.700117956846952" lon="12.038213219493628">
        <ele>1604.089999999999918</ele>
        <time>2015-03-14T09:03:04Z</time>
      </trkpt>
      <trkpt lat="47.700141174718738" lon="12.038075923919678">
        <ele>1606.900000000000091</ele>
        <time>2015-03-14T09:03:21Z</time>
      </trkpt>
      <trkpt lat="47.700152993202209" lon="12.037987746298313">
        <ele>1609.910000000000082</ele>
        <time>2015-03-14T09:03:34Z</time>
      </trkpt>
      <trkpt lat="47.700166990980506" lon="12.037935694679618">
        <ele>1609.960000000000036</ele>
        <time>2015-03-14T09:03:51Z</time>
      </trkpt>
      <trkpt lat="47.700153747573495" lon="12.037881296128035">
        <ele>1611.920000000000073</ele>
        <time>2015-03-14T09:04:09Z</time>
      </trkpt>
      <trkpt lat="47.700191214680672" lon="12.037923038005829">
        <ele>1613.990000000000009</ele>
        <time>2015-03-14T09:04:28Z</time>
      </trkpt>
      <trkpt lat="47.700257431715727" lon="12.038006102666259">
        <ele>1615.730000000000018</ele>
        <time>2015-03-14T09:04:50Z</time>
      </trkpt>
      <trkpt lat="47.700315434485674" lon="12.038033846765757">
        <ele>1618.309999999999945</ele>
        <time>2015-03-14T09:05:15Z</time>
      </trkpt>
      <trkpt lat="47.70036019384861" lon="12.038078689947724">
        <ele>1618.880000000000109</ele>
        <time>2015-03-14T09:05:34Z</time>
      </trkpt>
      <trkpt lat="47.700425405055285" lon="12.038132669404149">
        <ele>1621.180000000000064</ele>
        <time>2015-03-14T09:05:53Z</time>
      </trkpt>
      <trkpt lat="47.700471505522728" lon="12.038195785135031">
        <ele>1623.930000000000064</ele>
        <time>2015-03-14T09:06:15Z</time>
      </trkpt>
      <trkpt lat="47.70047745667398" lon="12.038194360211492">
        <ele>1623.509999999999991</ele>
        <time>2015-03-14T09:06:31Z</time>
      </trkpt>
      <trkpt lat="47.700537303462625" lon="12.038270719349384">
        <ele>1626.910000000000082</ele>
        <time>2015-03-14T09:06:50Z</time>
      </trkpt>
      <trkpt lat="47.700541410595179" lon="12.038276335224509">
        <ele>1627.180000000000064</ele>
        <time>2015-03-14T09:06:51Z</time>
      </trkpt>
      <trkpt lat="47.700575608760118" lon="12.038341462612152">
        <ele>1628.549999999999955</ele>
        <time>2015-03-14T09:07:06Z</time>
      </trkpt>
      <trkpt lat="47.700622798874974" lon="12.038394855335355">
        <ele>1629.869999999999891</ele>
        <time>2015-03-14T09:07:23Z</time>
      </trkpt>
      <trkpt lat="47.700673090294003" lon="12.038499712944031">
        <ele>1632.119999999999891</ele>
        <time>2015-03-14T09:07:41Z</time>
      </trkpt>
      <trkpt lat="47.700684741139412" lon="12.038545645773411">
        <ele>1633.440000000000055</ele>
        <time>2015-03-14T09:07:55Z</time>
      </trkpt>
      <trkpt lat="47.700706114992499" lon="12.038456378504634">
        <ele>1636.369999999999891</ele>
        <time>2015-03-14T09:08:12Z</time>
      </trkpt>
      <trkpt lat="47.70073251798749" lon="12.038379684090614">
        <ele>1637.799999999999955</ele>
        <time>2015-03-14T09:08:29Z</time>
      </trkpt>
      <trkpt lat="47.700736960396171" lon="12.038362165912986">
        <ele>1638.519999999999982</ele>
        <time>2015-03-14T09:08:31Z</time>
      </trkpt>
      <trkpt lat="47.700772080570459" lon="12.03826610930264">
        <ele>1641.930000000000064</ele>
        <time>2015-03-14T09:08:44Z</time>
      </trkpt>
      <trkpt lat="47.700800411403179" lon="12.038176422938704">
        <ele>1644.130000000000109</ele>
        <time>2015-03-14T09:08:58Z</time>
      </trkpt>
      <trkpt lat="47.700823964551091" lon="12.038113893941045">
        <ele>1646.819999999999936</ele>
        <time>2015-03-14T09:09:15Z</time>
      </trkpt>
      <trkpt lat="47.700843494385481" lon="12.038022028282285">
        <ele>1648.710000000000036</ele>
        <time>2015-03-14T09:09:30Z</time>
      </trkpt>
      <trkpt lat="47.700845170766115" lon="12.037945333868265">
        <ele>1649.799999999999955</ele>
        <time>2015-03-14T09:09:46Z</time>
      </trkpt>
      <trkpt lat="47.700843997299671" lon="12.037854725494981">
        <ele>1651.930000000000064</ele>
        <time>2015-03-14T09:10:01Z</time>
      </trkpt>
      <trkpt lat="47.700871489942074" lon="12.037733858451247">
        <ele>1655.710000000000036</ele>
        <time>2015-03-14T09:10:15Z</time>
      </trkpt>
      <trkpt lat="47.700896468013525" lon="12.037642328068614">
        <ele>1656.650000000000091</ele>
        <time>2015-03-14T09:10:34Z</time>
      </trkpt>
      <trkpt lat="47.700892360880971" lon="12.037598490715027">
        <ele>1660.009999999999991</ele>
        <time>2015-03-14T09:10:46Z</time>
      </trkpt>
      <trkpt lat="47.700916165485978" lon="12.037521628662944">
        <ele>1660.960000000000036</ele>
        <time>2015-03-14T09:11:08Z</time>
      </trkpt>
      <trkpt lat="47.700938796624541" lon="12.037425236776471">
        <ele>1662.950000000000045</ele>
        <time>2015-03-14T09:11:25Z</time>
      </trkpt>
      <trkpt lat="47.700958661735058" lon="12.037358768284321">
        <ele>1666.319999999999936</ele>
        <time>2015-03-14T09:11:34Z</time>
      </trkpt>
      <trkpt lat="47.700977437198162" lon="12.037288025021553">
        <ele>1668.069999999999936</ele>
        <time>2015-03-14T09:11:52Z</time>
      </trkpt>
      <trkpt lat="47.700992356985807" lon="12.037203786894679">
        <ele>1670.240000000000009</ele>
        <time>2015-03-14T09:12:11Z</time>
      </trkpt>
      <trkpt lat="47.700995290651917" lon="12.037192806601524">
        <ele>1671.019999999999982</ele>
        <time>2015-03-14T09:12:13Z</time>
      </trkpt>
      <trkpt lat="47.701007360592484" lon="12.037160452455282">
        <ele>1672.329999999999927</ele>
        <time>2015-03-14T09:12:23Z</time>
      </trkpt>
      <trkpt lat="47.701010797172785" lon="12.037119381129742">
        <ele>1673.119999999999891</ele>
        <time>2015-03-14T09:12:39Z</time>
      </trkpt>
      <trkpt lat="47.701007192954421" lon="12.037009745836258">
        <ele>1676.210000000000036</ele>
        <time>2015-03-14T09:12:53Z</time>
      </trkpt>
      <trkpt lat="47.701007444411516" lon="12.037005219608545">
        <ele>1676.299999999999955</ele>
        <time>2015-03-14T09:12:54Z</time>
      </trkpt>
      <trkpt lat="47.701072655618191" lon="12.036961633712053">
        <ele>1679.440000000000055</ele>
        <time>2015-03-14T09:13:09Z</time>
      </trkpt>
      <trkpt lat="47.701154798269272" lon="12.036917377263308">
        <ele>1682.619999999999891</ele>
        <time>2015-03-14T09:13:24Z</time>
      </trkpt>
      <trkpt lat="47.701180865988135" lon="12.036899020895362">
        <ele>1682.400000000000091</ele>
        <time>2015-03-14T09:13:38Z</time>
      </trkpt>
      <trkpt lat="47.701171981170774" lon="12.036890722811222">
        <ele>1682.160000000000082</ele>
        <time>2015-03-14T09:13:54Z</time>
      </trkpt>
      <trkpt lat="47.701174663379788" lon="12.036899775266647">
        <ele>1682.299999999999955</ele>
        <time>2015-03-14T09:14:16Z</time>
      </trkpt>
      <trkpt lat="47.701207771897316" lon="12.0368642359972">
        <ele>1683.410000000000082</ele>
        <time>2015-03-14T09:14:32Z</time>
      </trkpt>
      <trkpt lat="47.701227720826864" lon="12.036760216578841">
        <ele>1685.730000000000018</ele>
        <time>2015-03-14T09:14:45Z</time>
      </trkpt>
      <trkpt lat="47.701220093294978" lon="12.036684108898044">
        <ele>1689.019999999999982</ele>
        <time>2015-03-14T09:14:56Z</time>
      </trkpt>
      <trkpt lat="47.701160917058587" lon="12.036563074216247">
        <ele>1691.6099999999999</ele>
        <time>2015-03-14T09:15:12Z</time>
      </trkpt>
      <trkpt lat="47.701142393052578" lon="12.036503478884697">
        <ele>1694.619999999999891</ele>
        <time>2015-03-14T09:15:25Z</time>
      </trkpt>
      <trkpt lat="47.701109619811177" lon="12.036418318748474">
        <ele>1698.069999999999936</ele>
        <time>2015-03-14T09:15:45Z</time>
      </trkpt>
      <trkpt lat="47.701119845733047" lon="12.036366015672684">
        <ele>1699.009999999999991</ele>
        <time>2015-03-14T09:16:04Z</time>
      </trkpt>
      <trkpt lat="47.701165191829205" lon="12.036302061751485">
        <ele>1701.819999999999936</ele>
        <time>2015-03-14T09:16:15Z</time>
      </trkpt>
      <trkpt lat="47.701139124110341" lon="12.036252608522773">
        <ele>1703.420000000000073</ele>
        <time>2015-03-14T09:16:22Z</time>
      </trkpt>
      <trkpt lat="47.701123114675283" lon="12.036208687350154">
        <ele>1704.589999999999918</ele>
        <time>2015-03-14T09:16:37Z</time>
      </trkpt>
      <trkpt lat="47.701115319505334" lon="12.036171220242977">
        <ele>1707.690000000000055</ele>
        <time>2015-03-14T09:16:45Z</time>
      </trkpt>
      <trkpt lat="47.701141135767102" lon="12.036106679588556">
        <ele>1710.180000000000064</ele>
        <time>2015-03-14T09:17:05Z</time>
      </trkpt>
      <trkpt lat="47.70118354819715" lon="12.036039456725121">
        <ele>1712.059999999999945</ele>
        <time>2015-03-14T09:17:25Z</time>
      </trkpt>
      <trkpt lat="47.701235180720687" lon="12.035987740382552">
        <ele>1714.130000000000109</ele>
        <time>2015-03-14T09:17:42Z</time>
      </trkpt>
      <trkpt lat="47.701268708333373" lon="12.035900400951505">
        <ele>1715.539999999999964</ele>
        <time>2015-03-14T09:17:55Z</time>
      </trkpt>
      <trkpt lat="47.701305253431201" lon="12.03583812341094">
        <ele>1718.069999999999936</ele>
        <time>2015-03-14T09:18:14Z</time>
      </trkpt>
      <trkpt lat="47.701325453817844" lon="12.035686997696757">
        <ele>1720.700000000000045</ele>
        <time>2015-03-14T09:18:32Z</time>
      </trkpt>
      <trkpt lat="47.70137557759881" lon="12.035549869760871">
        <ele>1723.339999999999918</ele>
        <time>2015-03-14T09:18:51Z</time>
      </trkpt>
      <trkpt lat="47.7013726439327" lon="12.0354672241956">
        <ele>1725.009999999999991</ele>
        <time>2015-03-14T09:19:07Z</time>
      </trkpt>
      <trkpt lat="47.701366692781448" lon="12.035471247509122">
        <ele>1723.630000000000109</ele>
        <time>2015-03-14T09:19:25Z</time>
      </trkpt>
      <trkpt lat="47.701350850984454" lon="12.035472420975566">
        <ele>1723.509999999999991</ele>
        <time>2015-03-14T09:19:51Z</time>
      </trkpt>
      <trkpt lat="47.701366608962417" lon="12.035448532551527">
        <ele>1724.339999999999918</ele>
        <time>2015-03-14T09:20:20Z</time>
      </trkpt>
      <trkpt lat="47.701367866247892" lon="12.035433780401945">
        <ele>1724.150000000000091</ele>
        <time>2015-03-14T09:20:46Z</time>
      </trkpt>
      <trkpt lat="47.701389575377107" lon="12.035415591672063">
        <ele>1723.869999999999891</ele>
        <time>2015-03-14T09:21:18Z</time>
      </trkpt>
      <trkpt lat="47.701378595083952" lon="12.035415507853031">
        <ele>1723.819999999999936</ele>
        <time>2015-03-14T09:21:52Z</time>
      </trkpt>
      <trkpt lat="47.701409440487623" lon="12.035449454560876">
        <ele>1723.6400000000001</ele>
        <time>2015-03-14T09:22:26Z</time>
      </trkpt>
      <trkpt lat="47.70136870443821" lon="12.035429673269391">
        <ele>1723.710000000000036</ele>
        <time>2015-03-14T09:23:06Z</time>
      </trkpt>
      <trkpt lat="47.701375829055905" lon="12.035433109849691">
        <ele>1723.5</ele>
        <time>2015-03-14T09:23:38Z</time>
      </trkpt>
      <trkpt lat="47.701370799914002" lon="12.035430343821645">
        <ele>1723.670000000000073</ele>
        <time>2015-03-14T09:24:11Z</time>
      </trkpt>
      <trkpt lat="47.701368452981114" lon="12.035437049344182">
        <ele>1723.819999999999936</ele>
        <time>2015-03-14T09:24:34Z</time>
      </trkpt>
      <trkpt lat="47.701363256201148" lon="12.035458507016301">
        <ele>1723.789999999999964</ele>
        <time>2015-03-14T09:24:59Z</time>
      </trkpt>
      <trkpt lat="47.701374152675271" lon="12.035467643290758">
        <ele>1723.599999999999909</ele>
        <time>2015-03-14T09:25:22Z</time>
      </trkpt>
      <trkpt lat="47.701371470466256" lon="12.035468816757202">
        <ele>1723.440000000000055</ele>
        <time>2015-03-14T09:25:42Z</time>
      </trkpt>
      <trkpt lat="47.701381947845221" lon="12.035471498966217">
        <ele>1723.720000000000027</ele>
        <time>2015-03-14T09:26:04Z</time>
      </trkpt>
      <trkpt lat="47.701404914259911" lon="12.03549069352448">
        <ele>1723.809999999999945</ele>
        <time>2015-03-14T09:26:22Z</time>
      </trkpt>
      <trkpt lat="47.701367363333702" lon="12.035430846735835">
        <ele>1723.450000000000045</ele>
        <time>2015-03-14T09:26:52Z</time>
      </trkpt>
      <trkpt lat="47.70135747268796" lon="12.035422464832664">
        <ele>1723.589999999999918</ele>
        <time>2015-03-14T09:27:16Z</time>
      </trkpt>
      <trkpt lat="47.701356215402484" lon="12.035435708239675">
        <ele>1723.3900000000001</ele>
        <time>2015-03-14T09:27:42Z</time>
      </trkpt>
      <trkpt lat="47.70136141218245" lon="12.03544425778091">
        <ele>1723.6099999999999</ele>
        <time>2015-03-14T09:28:14Z</time>
      </trkpt>
      <trkpt lat="47.701355963945389" lon="12.035442246124148">
        <ele>1723.019999999999982</ele>
        <time>2015-03-14T09:28:58Z</time>
      </trkpt>
      <trkpt lat="47.701373565942049" lon="12.035454818978906">
        <ele>1723.289999999999964</ele>
        <time>2015-03-14T09:29:23Z</time>
      </trkpt>
      <trkpt lat="47.701360154896975" lon="12.035422632470727">
        <ele>1722.680000000000064</ele>
        <time>2015-03-14T09:29:50Z</time>
      </trkpt>
      <trkpt lat="47.701363256201148" lon="12.03545113094151">
        <ele>1722.759999999999991</ele>
        <time>2015-03-14T09:30:10Z</time>
      </trkpt>
      <trkpt lat="47.701365938410163" lon="12.035470241680741">
        <ele>1723.119999999999891</ele>
        <time>2015-03-14T09:30:29Z</time>
      </trkpt>
      <trkpt lat="47.701368620619178" lon="12.035466050729156">
        <ele>1723.170000000000073</ele>
        <time>2015-03-14T09:30:51Z</time>
      </trkpt>
      <trkpt lat="47.701373985037208" lon="12.035477617755532">
        <ele>1722.940000000000055</ele>
        <time>2015-03-14T09:31:14Z</time>
      </trkpt>
      <trkpt lat="47.701368452981114" lon="12.035476192831993">
        <ele>1723.029999999999973</ele>
        <time>2015-03-14T09:31:36Z</time>
      </trkpt>
      <trkpt lat="47.701367698609829" lon="12.035474432632327">
        <ele>1722.680000000000064</ele>
        <time>2015-03-14T09:32:01Z</time>
      </trkpt>
      <trkpt lat="47.701360657811165" lon="12.035465212538838">
        <ele>1723.1400000000001</ele>
        <time>2015-03-14T09:32:25Z</time>
      </trkpt>
      <trkpt lat="47.701351521536708" lon="12.035441659390926">
        <ele>1722.619999999999891</ele>
        <time>2015-03-14T09:32:48Z</time>
      </trkpt>
      <trkpt lat="47.701359484344721" lon="12.035474181175232">
        <ele>1723.299999999999955</ele>
        <time>2015-03-14T09:33:15Z</time>
      </trkpt>
      <trkpt lat="47.701360238716006" lon="12.035465631633997">
        <ele>1723.1099999999999</ele>
        <time>2015-03-14T09:33:40Z</time>
      </trkpt>
      <trkpt lat="47.701354036107659" lon="12.035468900576234">
        <ele>1723.029999999999973</ele>
        <time>2015-03-14T09:34:02Z</time>
      </trkpt>
      <trkpt lat="47.701360657811165" lon="12.035464374348521">
        <ele>1722.849999999999909</ele>
        <time>2015-03-14T09:34:31Z</time>
      </trkpt>
      <trkpt lat="47.701354036107659" lon="12.035445179790258">
        <ele>1723.230000000000018</ele>
        <time>2015-03-14T09:35:18Z</time>
      </trkpt>
      <trkpt lat="47.701355377212167" lon="12.035446185618639">
        <ele>1724.019999999999982</ele>
        <time>2015-03-14T09:35:55Z</time>
      </trkpt>
      <trkpt lat="47.701353533193469" lon="12.035464039072394">
        <ele>1723.829999999999927</ele>
        <time>2015-03-14T09:36:17Z</time>
      </trkpt>
      <trkpt lat="47.701376164332032" lon="12.035491028800607">
        <ele>1723.319999999999936</ele>
        <time>2015-03-14T09:36:39Z</time>
      </trkpt>
      <trkpt lat="47.701377253979445" lon="12.035517431795597">
        <ele>1721.849999999999909</ele>
        <time>2015-03-14T09:36:47Z</time>
      </trkpt>
      <trkpt lat="47.701370129361749" lon="12.035543583333492">
        <ele>1721.5</ele>
        <time>2015-03-14T09:37:04Z</time>
      </trkpt>
      <trkpt lat="47.70136434584856" lon="12.035543080419302">
        <ele>1722.240000000000009</ele>
        <time>2015-03-14T09:37:25Z</time>
      </trkpt>
      <trkpt lat="47.701348587870598" lon="12.035543583333492">
        <ele>1721.210000000000036</ele>
        <time>2015-03-14T09:37:53Z</time>
      </trkpt>
      <trkpt lat="47.701329812407494" lon="12.035555569455028">
        <ele>1721.579999999999927</ele>
        <time>2015-03-14T09:38:09Z</time>
      </trkpt>
      <trkpt lat="47.701322101056576" lon="12.035551713779569">
        <ele>1720.990000000000009</ele>
        <time>2015-03-14T09:38:32Z</time>
      </trkpt>
      <trkpt lat="47.701321765780449" lon="12.03555766493082">
        <ele>1721.569999999999936</ele>
        <time>2015-03-14T09:38:48Z</time>
      </trkpt>
      <trkpt lat="47.701325034722686" lon="12.035564202815294">
        <ele>1721.549999999999955</ele>
        <time>2015-03-14T09:39:16Z</time>
      </trkpt>
      <trkpt lat="47.701313467696309" lon="12.035661768168211">
        <ele>1719.619999999999891</ele>
        <time>2015-03-14T09:39:38Z</time>
      </trkpt>
      <trkpt lat="47.701311456039548" lon="12.035700408741832">
        <ele>1719.1400000000001</ele>
        <time>2015-03-14T09:39:39Z</time>
      </trkpt>
      <trkpt lat="47.701304834336042" lon="12.035724548622966">
        <ele>1718.650000000000091</ele>
        <time>2015-03-14T09:39:40Z</time>
      </trkpt>
      <trkpt lat="47.701221937313676" lon="12.035900987684727">
        <ele>1715.529999999999973</ele>
        <time>2015-03-14T09:39:45Z</time>
      </trkpt>
      <trkpt lat="47.701165275648236" lon="12.035972904413939">
        <ele>1713.920000000000073</ele>
        <time>2015-03-14T09:39:47Z</time>
      </trkpt>
      <trkpt lat="47.701137783005834" lon="12.035995619371533">
        <ele>1711.599999999999909</ele>
        <time>2015-03-14T09:39:48Z</time>
      </trkpt>
      <trkpt lat="47.701112302020192" lon="12.036007856950164">
        <ele>1711.569999999999936</ele>
        <time>2015-03-14T09:39:49Z</time>
      </trkpt>
      <trkpt lat="47.70108925178647" lon="12.036025458946824">
        <ele>1710.460000000000036</ele>
        <time>2015-03-14T09:39:50Z</time>
      </trkpt>
      <trkpt lat="47.701090592890978" lon="12.036053203046322">
        <ele>1708.6099999999999</ele>
        <time>2015-03-14T09:39:51Z</time>
      </trkpt>
      <trkpt lat="47.701106099411845" lon="12.036095447838306">
        <ele>1707.450000000000045</ele>
        <time>2015-03-14T09:39:52Z</time>
      </trkpt>
      <trkpt lat="47.701102076098323" lon="12.036145739257336">
        <ele>1705.430000000000064</ele>
        <time>2015-03-14T09:39:53Z</time>
      </trkpt>
      <trkpt lat="47.701071230694652" lon="12.036184463649988">
        <ele>1703.769999999999982</ele>
        <time>2015-03-14T09:39:54Z</time>
      </trkpt>
      <trkpt lat="47.701040469110012" lon="12.036219835281372">
        <ele>1702.299999999999955</ele>
        <time>2015-03-14T09:39:55Z</time>
      </trkpt>
      <trkpt lat="47.701018508523703" lon="12.036271635442972">
        <ele>1700.559999999999945</ele>
        <time>2015-03-14T09:39:56Z</time>
      </trkpt>
      <trkpt lat="47.700954470783472" lon="12.036372469738126">
        <ele>1696.049999999999955</ele>
        <time>2015-03-14T09:39:58Z</time>
      </trkpt>
      <trkpt lat="47.700940389186144" lon="12.036431729793549">
        <ele>1694.329999999999927</ele>
        <time>2015-03-14T09:39:59Z</time>
      </trkpt>
      <trkpt lat="47.700899820774794" lon="12.036514542996883">
        <ele>1690.75</ele>
        <time>2015-03-14T09:40:01Z</time>
      </trkpt>
      <trkpt lat="47.700889930129051" lon="12.036563660949469">
        <ele>1687.440000000000055</ele>
        <time>2015-03-14T09:40:02Z</time>
      </trkpt>
      <trkpt lat="47.700843829661608" lon="12.036644713953137">
        <ele>1683.759999999999991</ele>
        <time>2015-03-14T09:40:04Z</time>
      </trkpt>
      <trkpt lat="47.700831508263946" lon="12.036697519943118">
        <ele>1680.289999999999964</ele>
        <time>2015-03-14T09:40:05Z</time>
      </trkpt>
      <trkpt lat="47.70079119130969" lon="12.036788379773498">
        <ele>1675.190000000000055</ele>
        <time>2015-03-14T09:40:07Z</time>
      </trkpt>
      <trkpt lat="47.700752047821879" lon="12.036895835772157">
        <ele>1671.869999999999891</ele>
        <time>2015-03-14T09:40:09Z</time>
      </trkpt>
      <trkpt lat="47.700723214074969" lon="12.03694436699152">
        <ele>1668.240000000000009</ele>
        <time>2015-03-14T09:40:10Z</time>
      </trkpt>
      <trkpt lat="47.700695972889662" lon="12.03704159706831">
        <ele>1664.490000000000009</ele>
        <time>2015-03-14T09:40:12Z</time>
      </trkpt>
      <trkpt lat="47.700644424185157" lon="12.037125248461962">
        <ele>1659.6400000000001</ele>
        <time>2015-03-14T09:40:14Z</time>
      </trkpt>
      <trkpt lat="47.700663870200515" lon="12.037227591499686">
        <ele>1656.619999999999891</ele>
        <time>2015-03-14T09:40:16Z</time>
      </trkpt>
      <trkpt lat="47.70067878998816" lon="12.03727469779551">
        <ele>1656.880000000000109</ele>
        <time>2015-03-14T09:40:17Z</time>
      </trkpt>
      <trkpt lat="47.700624726712704" lon="12.037425991147757">
        <ele>1651.220000000000027</ele>
        <time>2015-03-14T09:40:20Z</time>
      </trkpt>
      <trkpt lat="47.700560186058283" lon="12.037534117698669">
        <ele>1645.539999999999964</ele>
        <time>2015-03-14T09:40:22Z</time>
      </trkpt>
      <trkpt lat="47.700510146096349" lon="12.037681471556425">
        <ele>1639.3599999999999</ele>
        <time>2015-03-14T09:40:24Z</time>
      </trkpt>
      <trkpt lat="47.700516516342759" lon="12.037792950868607">
        <ele>1635.990000000000009</ele>
        <time>2015-03-14T09:40:25Z</time>
      </trkpt>
      <trkpt lat="47.70054979249835" lon="12.037987327203155">
        <ele>1631.440000000000055</ele>
        <time>2015-03-14T09:40:28Z</time>
      </trkpt>
      <trkpt lat="47.700568651780486" lon="12.037948435172439">
        <ele>1632.960000000000036</ele>
        <time>2015-03-14T09:40:38Z</time>
      </trkpt>
      <trkpt lat="47.700580218806863" lon="12.037943238392472">
        <ele>1632.839999999999918</ele>
        <time>2015-03-14T09:41:08Z</time>
      </trkpt>
      <trkpt lat="47.70047795958817" lon="12.037978358566761">
        <ele>1628.6099999999999</ele>
        <time>2015-03-14T09:41:12Z</time>
      </trkpt>
      <trkpt lat="47.700399169698358" lon="12.038006186485291">
        <ele>1623.920000000000073</ele>
        <time>2015-03-14T09:41:14Z</time>
      </trkpt>
      <trkpt lat="47.700357427820563" lon="12.038011299446225">
        <ele>1619.900000000000091</ele>
        <time>2015-03-14T09:41:15Z</time>
      </trkpt>
      <trkpt lat="47.700337059795856" lon="12.038010964170098">
        <ele>1619.490000000000009</ele>
        <time>2015-03-14T09:41:17Z</time>
      </trkpt>
      <trkpt lat="47.700239829719067" lon="12.037966540083289">
        <ele>1615.680000000000064</ele>
        <time>2015-03-14T09:41:21Z</time>
      </trkpt>
      <trkpt lat="47.700192555785179" lon="12.038022615015507">
        <ele>1611.880000000000109</ele>
        <time>2015-03-14T09:41:23Z</time>
      </trkpt>
      <trkpt lat="47.700131200253963" lon="12.038079025223851">
        <ele>1606.920000000000073</ele>
        <time>2015-03-14T09:41:25Z</time>
      </trkpt>
      <trkpt lat="47.700092475861311" lon="12.038062177598476">
        <ele>1605.509999999999991</ele>
        <time>2015-03-14T09:41:26Z</time>
      </trkpt>
      <trkpt lat="47.699920563027263" lon="12.03784148208797">
        <ele>1601.119999999999891</ele>
        <time>2015-03-14T09:41:31Z</time>
      </trkpt>
      <trkpt lat="47.699795672670007" lon="12.037806278094649">
        <ele>1596.880000000000109</ele>
        <time>2015-03-14T09:41:34Z</time>
      </trkpt>
      <trkpt lat="47.699759211391211" lon="12.037834692746401">
        <ele>1593.519999999999982</ele>
        <time>2015-03-14T09:41:35Z</time>
      </trkpt>
      <trkpt lat="47.699747309088707" lon="12.037874590605497">
        <ele>1590.900000000000091</ele>
        <time>2015-03-14T09:41:37Z</time>
      </trkpt>
      <trkpt lat="47.699764324352145" lon="12.03785908408463">
        <ele>1591.730000000000018</ele>
        <time>2015-03-14T09:41:51Z</time>
      </trkpt>
      <trkpt lat="47.699765413999557" lon="12.037859922274947">
        <ele>1591.069999999999936</ele>
        <time>2015-03-14T09:42:12Z</time>
      </trkpt>
      <trkpt lat="47.699716631323099" lon="12.037806278094649">
        <ele>1589.509999999999991</ele>
        <time>2015-03-14T09:42:15Z</time>
      </trkpt>
      <trkpt lat="47.699675057083368" lon="12.037743832916021">
        <ele>1588.589999999999918</ele>
        <time>2015-03-14T09:42:17Z</time>
      </trkpt>
      <trkpt lat="47.69958034157753" lon="12.037625061348081">
        <ele>1585.559999999999945</ele>
        <time>2015-03-14T09:42:22Z</time>
      </trkpt>
      <trkpt lat="47.699483530595899" lon="12.037460776045918">
        <ele>1582.720000000000027</ele>
        <time>2015-03-14T09:42:25Z</time>
      </trkpt>
      <trkpt lat="47.699416559189558" lon="12.037369245663285">
        <ele>1580.309999999999945</ele>
        <time>2015-03-14T09:42:33Z</time>
      </trkpt>
      <trkpt lat="47.699412954971194" lon="12.037385255098343">
        <ele>1579.769999999999982</ele>
        <time>2015-03-14T09:42:54Z</time>
      </trkpt>
      <trkpt lat="47.699310863390565" lon="12.037328844889998">
        <ele>1578.470000000000027</ele>
        <time>2015-03-14T09:42:58Z</time>
      </trkpt>
      <trkpt lat="47.699146829545498" lon="12.037210492417216">
        <ele>1574.240000000000009</ele>
        <time>2015-03-14T09:43:02Z</time>
      </trkpt>
      <trkpt lat="47.699057227000594" lon="12.037139916792512">
        <ele>1571.990000000000009</ele>
        <time>2015-03-14T09:43:04Z</time>
      </trkpt>
      <trkpt lat="47.698981035500765" lon="12.037073951214552">
        <ele>1570.559999999999945</ele>
        <time>2015-03-14T09:43:06Z</time>
      </trkpt>
      <trkpt lat="47.698887577280402" lon="12.036976218223572">
        <ele>1567.990000000000009</ele>
        <time>2015-03-14T09:43:09Z</time>
      </trkpt>
      <trkpt lat="47.698784312233329" lon="12.036975966766477">
        <ele>1562.170000000000073</ele>
        <time>2015-03-14T09:43:12Z</time>
      </trkpt>
      <trkpt lat="47.698768638074398" lon="12.037065904587507">
        <ele>1558.660000000000082</ele>
        <time>2015-03-14T09:43:14Z</time>
      </trkpt>
      <trkpt lat="47.698696050792933" lon="12.037092475220561">
        <ele>1554.970000000000027</ele>
        <time>2015-03-14T09:43:16Z</time>
      </trkpt>
      <trkpt lat="47.698667217046022" lon="12.037130361422896">
        <ele>1551.670000000000073</ele>
        <time>2015-03-14T09:43:17Z</time>
      </trkpt>
      <trkpt lat="47.698608040809631" lon="12.037178725004196">
        <ele>1547.680000000000064</ele>
        <time>2015-03-14T09:43:19Z</time>
      </trkpt>
      <trkpt lat="47.698509721085429" lon="12.037098258733749">
        <ele>1543.8900000000001</ele>
        <time>2015-03-14T09:43:22Z</time>
      </trkpt>
      <trkpt lat="47.698421543464065" lon="12.037017289549112">
        <ele>1542.680000000000064</ele>
        <time>2015-03-14T09:43:25Z</time>
      </trkpt>
      <trkpt lat="47.698332779109478" lon="12.03708803281188">
        <ele>1536.269999999999982</ele>
        <time>2015-03-14T09:43:28Z</time>
      </trkpt>
      <trkpt lat="47.698260443285108" lon="12.037111166864634">
        <ele>1531.619999999999891</ele>
        <time>2015-03-14T09:43:30Z</time>
      </trkpt>
      <trkpt lat="47.698198165744543" lon="12.037173612043262">
        <ele>1527.230000000000018</ele>
        <time>2015-03-14T09:43:32Z</time>
      </trkpt>
      <trkpt lat="47.698134714737535" lon="12.03718576580286">
        <ele>1522.720000000000027</ele>
        <time>2015-03-14T09:43:34Z</time>
      </trkpt>
      <trkpt lat="47.698079310357571" lon="12.03713639639318">
        <ele>1521.589999999999918</ele>
        <time>2015-03-14T09:43:36Z</time>
      </trkpt>
      <trkpt lat="47.697978727519512" lon="12.037135642021894">
        <ele>1516.539999999999964</ele>
        <time>2015-03-14T09:43:39Z</time>
      </trkpt>
      <trkpt lat="47.69795810803771" lon="12.037255335599184">
        <ele>1513.3599999999999</ele>
        <time>2015-03-14T09:43:41Z</time>
      </trkpt>
      <trkpt lat="47.697888873517513" lon="12.037267489358783">
        <ele>1508.470000000000027</ele>
        <time>2015-03-14T09:43:43Z</time>
      </trkpt>
      <trkpt lat="47.697816034778953" lon="12.037189789116383">
        <ele>1506.6099999999999</ele>
        <time>2015-03-14T09:43:46Z</time>
      </trkpt>
      <trkpt lat="47.697809496894479" lon="12.037164894863963">
        <ele>1507.660000000000082</ele>
        <time>2015-03-14T09:43:58Z</time>
      </trkpt>
      <trkpt lat="47.697801869362593" lon="12.037151148542762">
        <ele>1507.930000000000064</ele>
        <time>2015-03-14T09:44:39Z</time>
      </trkpt>
      <trkpt lat="47.697792900726199" lon="12.037147041410208">
        <ele>1507.630000000000109</ele>
        <time>2015-03-14T09:44:43Z</time>
      </trkpt>
      <trkpt lat="47.697736322879791" lon="12.037152741104364">
        <ele>1503.5</ele>
        <time>2015-03-14T09:44:48Z</time>
      </trkpt>
      <trkpt lat="47.697739759460092" lon="12.037165146321058">
        <ele>1503.720000000000027</ele>
        <time>2015-03-14T09:44:49Z</time>
      </trkpt>
      <trkpt lat="47.69774361513555" lon="12.037165565416217">
        <ele>1503.900000000000091</ele>
        <time>2015-03-14T09:44:54Z</time>
      </trkpt>
      <trkpt lat="47.697682930156589" lon="12.037214012816548">
        <ele>1500.440000000000055</ele>
        <time>2015-03-14T09:44:58Z</time>
      </trkpt>
      <trkpt lat="47.697653761133552" lon="12.037221137434244">
        <ele>1500.289999999999964</ele>
        <time>2015-03-14T09:44:59Z</time>
      </trkpt>
      <trkpt lat="47.697632052004337" lon="12.037303866818547">
        <ele>1496.720000000000027</ele>
        <time>2015-03-14T09:45:01Z</time>
      </trkpt>
      <trkpt lat="47.697581341490149" lon="12.037340747192502">
        <ele>1493.269999999999982</ele>
        <time>2015-03-14T09:45:03Z</time>
      </trkpt>
      <trkpt lat="47.697538007050753" lon="12.037387853488326">
        <ele>1490.069999999999936</ele>
        <time>2015-03-14T09:45:05Z</time>
      </trkpt>
      <trkpt lat="47.697515459731221" lon="12.037403360009193">
        <ele>1486.079999999999927</ele>
        <time>2015-03-14T09:45:06Z</time>
      </trkpt>
      <trkpt lat="47.697429042309523" lon="12.037504445761442">
        <ele>1479.339999999999918</ele>
        <time>2015-03-14T09:45:10Z</time>
      </trkpt>
      <trkpt lat="47.697393586859107" lon="12.037509474903345">
        <ele>1477.569999999999936</ele>
        <time>2015-03-14T09:45:11Z</time>
      </trkpt>
      <trkpt lat="47.697303649038076" lon="12.037481563165784">
        <ele>1475.130000000000109</ele>
        <time>2015-03-14T09:45:13Z</time>
      </trkpt>
      <trkpt lat="47.697155037894845" lon="12.037454070523381">
        <ele>1472.440000000000055</ele>
        <time>2015-03-14T09:45:17Z</time>
      </trkpt>
      <trkpt lat="47.6971142180264" lon="12.037477036938071">
        <ele>1469.410000000000082</ele>
        <time>2015-03-14T09:45:18Z</time>
      </trkpt>
      <trkpt lat="47.69701799377799" lon="12.037422554567456">
        <ele>1466.509999999999991</ele>
        <time>2015-03-14T09:45:21Z</time>
      </trkpt>
      <trkpt lat="47.696954375132918" lon="12.037448538467288">
        <ele>1462.75</ele>
        <time>2015-03-14T09:45:23Z</time>
      </trkpt>
      <trkpt lat="47.696871561929584" lon="12.037468738853931">
        <ele>1459.1099999999999</ele>
        <time>2015-03-14T09:45:26Z</time>
      </trkpt>
      <trkpt lat="47.696804674342275" lon="12.03748382627964">
        <ele>1455.200000000000045</ele>
        <time>2015-03-14T09:45:28Z</time>
      </trkpt>
      <trkpt lat="47.696727896109223" lon="12.037521209567785">
        <ele>1451.299999999999955</ele>
        <time>2015-03-14T09:45:30Z</time>
      </trkpt>
      <trkpt lat="47.696659164503217" lon="12.037521293386817">
        <ele>1448.269999999999982</ele>
        <time>2015-03-14T09:45:32Z</time>
      </trkpt>
      <trkpt lat="47.696659583598375" lon="12.037549540400505">
        <ele>1447.230000000000018</ele>
        <time>2015-03-14T09:45:34Z</time>
      </trkpt>
      <trkpt lat="47.696695290505886" lon="12.037531603127718">
        <ele>1447.099999999999909</ele>
        <time>2015-03-14T09:46:04Z</time>
      </trkpt>
      <trkpt lat="47.696694368496537" lon="12.037527663633227">
        <ele>1447.5</ele>
        <time>2015-03-14T09:46:22Z</time>
      </trkpt>
      <trkpt lat="47.696645334362984" lon="12.037568232044578">
        <ele>1445.400000000000091</ele>
        <time>2015-03-14T09:46:25Z</time>
      </trkpt>
      <trkpt lat="47.696550115942955" lon="12.037578290328383">
        <ele>1441.680000000000064</ele>
        <time>2015-03-14T09:46:28Z</time>
      </trkpt>
      <trkpt lat="47.696426482871175" lon="12.037554904818535">
        <ele>1437.700000000000045</ele>
        <time>2015-03-14T09:46:31Z</time>
      </trkpt>
      <trkpt lat="47.69630846567452" lon="12.037673173472285">
        <ele>1433.069999999999936</ele>
        <time>2015-03-14T09:46:35Z</time>
      </trkpt>
      <trkpt lat="47.696232022717595" lon="12.03776529058814">
        <ele>1428.920000000000073</ele>
        <time>2015-03-14T09:46:38Z</time>
      </trkpt>
      <trkpt lat="47.696204865351319" lon="12.037842655554414">
        <ele>1425.25</ele>
        <time>2015-03-14T09:46:40Z</time>
      </trkpt>
      <trkpt lat="47.696194974705577" lon="12.037894204258919">
        <ele>1421.589999999999918</ele>
        <time>2015-03-14T09:46:42Z</time>
      </trkpt>
      <trkpt lat="47.696196231991053" lon="12.037897557020187">
        <ele>1421.5</ele>
        <time>2015-03-14T09:46:43Z</time>
      </trkpt>
      <trkpt lat="47.696219952777028" lon="12.037918930873275">
        <ele>1422.470000000000027</ele>
        <time>2015-03-14T09:46:59Z</time>
      </trkpt>
      <trkpt lat="47.696232441812754" lon="12.037927564233541">
        <ele>1422.529999999999973</ele>
        <time>2015-03-14T09:47:05Z</time>
      </trkpt>
      <trkpt lat="47.696258509531617" lon="12.038022950291634">
        <ele>1417.190000000000055</ele>
        <time>2015-03-14T09:47:09Z</time>
      </trkpt>
      <trkpt lat="47.69626404158771" lon="12.038098806515336">
        <ele>1411.579999999999927</ele>
        <time>2015-03-14T09:47:11Z</time>
      </trkpt>
      <trkpt lat="47.69628843292594" lon="12.03818891197443">
        <ele>1407.829999999999927</ele>
        <time>2015-03-14T09:47:14Z</time>
      </trkpt>
      <trkpt lat="47.696277117356658" lon="12.03827197663486">
        <ele>1403.009999999999991</ele>
        <time>2015-03-14T09:47:16Z</time>
      </trkpt>
      <trkpt lat="47.696363534778357" lon="12.038412457332015">
        <ele>1399.559999999999945</ele>
        <time>2015-03-14T09:47:19Z</time>
      </trkpt>
      <trkpt lat="47.696576099842787" lon="12.038645390421152">
        <ele>1397.170000000000073</ele>
        <time>2015-03-14T09:47:27Z</time>
      </trkpt>
      <trkpt lat="47.696752622723579" lon="12.038834067061543">
        <ele>1394.450000000000045</ele>
        <time>2015-03-14T09:47:32Z</time>
      </trkpt>
      <trkpt lat="47.696769302710891" lon="12.038890896365047">
        <ele>1392.980000000000018</ele>
        <time>2015-03-14T09:47:42Z</time>
      </trkpt>
      <trkpt lat="47.696743737906218" lon="12.038871953263879">
        <ele>1393.170000000000073</ele>
        <time>2015-03-14T09:48:10Z</time>
      </trkpt>
      <trkpt lat="47.696700235828757" lon="12.038895590230823">
        <ele>1392.240000000000009</ele>
        <time>2015-03-14T09:48:12Z</time>
      </trkpt>
      <trkpt lat="47.696671318262815" lon="12.039024168625474">
        <ele>1386.289999999999964</ele>
        <time>2015-03-14T09:48:16Z</time>
      </trkpt>
      <trkpt lat="47.696670228615403" lon="12.039048559963703">
        <ele>1385.259999999999991</ele>
        <time>2015-03-14T09:48:18Z</time>
      </trkpt>
      <trkpt lat="47.696691267192364" lon="12.039040010422468">
        <ele>1383.220000000000027</ele>
        <time>2015-03-14T09:48:35Z</time>
      </trkpt>
      <trkpt lat="47.696679448708892" lon="12.039072448387742">
        <ele>1382.170000000000073</ele>
        <time>2015-03-14T09:48:52Z</time>
      </trkpt>
      <trkpt lat="47.696669725701213" lon="12.039077980443835">
        <ele>1383.089999999999918</ele>
        <time>2015-03-14T09:49:05Z</time>
      </trkpt>
      <trkpt lat="47.696695541962981" lon="12.039163978770375">
        <ele>1380.950000000000045</ele>
        <time>2015-03-14T09:49:09Z</time>
      </trkpt>
      <trkpt lat="47.696652291342616" lon="12.039182083681226">
        <ele>1378.970000000000027</ele>
        <time>2015-03-14T09:49:20Z</time>
      </trkpt>
      <trkpt lat="47.696566376835108" lon="12.039191974326968">
        <ele>1374.410000000000082</ele>
        <time>2015-03-14T09:49:23Z</time>
      </trkpt>
      <trkpt lat="47.69655623473227" lon="12.039246372878551">
        <ele>1373.630000000000109</ele>
        <time>2015-03-14T09:49:24Z</time>
      </trkpt>
      <trkpt lat="47.696449784561992" lon="12.039342764765024">
        <ele>1366.759999999999991</ele>
        <time>2015-03-14T09:49:28Z</time>
      </trkpt>
      <trkpt lat="47.696435283869505" lon="12.039386434480548">
        <ele>1366.470000000000027</ele>
        <time>2015-03-14T09:49:29Z</time>
      </trkpt>
      <trkpt lat="47.696412988007069" lon="12.03942071646452">
        <ele>1363.450000000000045</ele>
        <time>2015-03-14T09:49:30Z</time>
      </trkpt>
      <trkpt lat="47.696298994123936" lon="12.03943538479507">
        <ele>1359.130000000000109</ele>
        <time>2015-03-14T09:49:33Z</time>
      </trkpt>
      <trkpt lat="47.696273680776358" lon="12.039543259888887">
        <ele>1356.509999999999991</ele>
        <time>2015-03-14T09:49:36Z</time>
      </trkpt>
      <trkpt lat="47.696227161213756" lon="12.039558850228786">
        <ele>1351.920000000000073</ele>
        <time>2015-03-14T09:49:38Z</time>
      </trkpt>
      <trkpt lat="47.696165386587381" lon="12.039694553241134">
        <ele>1348.619999999999891</ele>
        <time>2015-03-14T09:49:42Z</time>
      </trkpt>
      <trkpt lat="47.696139235049486" lon="12.039679465815425">
        <ele>1347.869999999999891</ele>
        <time>2015-03-14T09:49:44Z</time>
      </trkpt>
      <trkpt lat="47.696061953902245" lon="12.039587600156665">
        <ele>1344.5</ele>
        <time>2015-03-14T09:49:48Z</time>
      </trkpt>
      <trkpt lat="47.696047453209758" lon="12.039598245173693">
        <ele>1342.119999999999891</ele>
        <time>2015-03-14T09:49:50Z</time>
      </trkpt>
      <trkpt lat="47.696051895618439" lon="12.0395512226969">
        <ele>1342.230000000000018</ele>
        <time>2015-03-14T09:50:02Z</time>
      </trkpt>
      <trkpt lat="47.696006298065186" lon="12.039582906290889">
        <ele>1337.630000000000109</ele>
        <time>2015-03-14T09:50:05Z</time>
      </trkpt>
      <trkpt lat="47.695936979725957" lon="12.039682986214757">
        <ele>1332.869999999999891</ele>
        <time>2015-03-14T09:50:07Z</time>
      </trkpt>
      <trkpt lat="47.695832708850503" lon="12.039801254868507">
        <ele>1327.970000000000027</ele>
        <time>2015-03-14T09:50:09Z</time>
      </trkpt>
      <trkpt lat="47.695737574249506" lon="12.040078528225422">
        <ele>1324.460000000000036</ele>
        <time>2015-03-14T09:50:12Z</time>
      </trkpt>
      <trkpt lat="47.695712596178055" lon="12.040286650881171">
        <ele>1322.8900000000001</ele>
        <time>2015-03-14T09:50:14Z</time>
      </trkpt>
      <trkpt lat="47.695615701377392" lon="12.040589321404696">
        <ele>1320.569999999999936</ele>
        <time>2015-03-14T09:50:18Z</time>
      </trkpt>
      <trkpt lat="47.695597345009446" lon="12.040616311132908">
        <ele>1320.700000000000045</ele>
        <time>2015-03-14T09:50:19Z</time>
      </trkpt>
      <trkpt lat="47.695531798526645" lon="12.040767520666122">
        <ele>1321.900000000000091</ele>
        <time>2015-03-14T09:50:33Z</time>
      </trkpt>
      <trkpt lat="47.695529954507947" lon="12.040812028571963">
        <ele>1321.730000000000018</ele>
        <time>2015-03-14T09:50:50Z</time>
      </trkpt>
      <trkpt lat="47.695521656423807" lon="12.040786799043417">
        <ele>1321.8599999999999</ele>
        <time>2015-03-14T09:51:06Z</time>
      </trkpt>
      <trkpt lat="47.695523668080568" lon="12.040839688852429">
        <ele>1321.720000000000027</ele>
        <time>2015-03-14T09:51:08Z</time>
      </trkpt>
      <trkpt lat="47.695524673908949" lon="12.040987461805344">
        <ele>1316.869999999999891</ele>
        <time>2015-03-14T09:51:11Z</time>
      </trkpt>
      <trkpt lat="47.695528445765376" lon="12.041207989677787">
        <ele>1313.039999999999964</ele>
        <time>2015-03-14T09:51:14Z</time>
      </trkpt>
      <trkpt lat="47.695533391088247" lon="12.041490124538541">
        <ele>1309.549999999999955</ele>
        <time>2015-03-14T09:51:19Z</time>
      </trkpt>
      <trkpt lat="47.695485362783074" lon="12.041478808969259">
        <ele>1306.099999999999909</ele>
        <time>2015-03-14T09:51:22Z</time>
      </trkpt>
      <trkpt lat="47.695476058870554" lon="12.04146321862936">
        <ele>1305.369999999999891</ele>
        <time>2015-03-14T09:51:23Z</time>
      </trkpt>
      <trkpt lat="47.695459546521306" lon="12.041454166173935">
        <ele>1304.900000000000091</ele>
        <time>2015-03-14T09:51:31Z</time>
      </trkpt>
      <trkpt lat="47.695373883470893" lon="12.041421392932534">
        <ele>1300.460000000000036</ele>
        <time>2015-03-14T09:51:35Z</time>
      </trkpt>
      <trkpt lat="47.695316970348358" lon="12.041434720158577">
        <ele>1296.329999999999927</ele>
        <time>2015-03-14T09:51:38Z</time>
      </trkpt>
      <trkpt lat="47.695291740819812" lon="12.041521556675434">
        <ele>1294.1400000000001</ele>
        <time>2015-03-14T09:51:45Z</time>
      </trkpt>
      <trkpt lat="47.695284029468894" lon="12.041542092338204">
        <ele>1293.259999999999991</ele>
        <time>2015-03-14T09:51:47Z</time>
      </trkpt>
      <trkpt lat="47.695252932608128" lon="12.041681483387947">
        <ele>1289.799999999999955</ele>
        <time>2015-03-14T09:51:52Z</time>
      </trkpt>
      <trkpt lat="47.695229798555374" lon="12.041720459237695">
        <ele>1286.789999999999964</ele>
        <time>2015-03-14T09:51:53Z</time>
      </trkpt>
      <trkpt lat="47.695206329226494" lon="12.041820622980595">
        <ele>1283.25</ele>
        <time>2015-03-14T09:51:56Z</time>
      </trkpt>
      <trkpt lat="47.695172298699617" lon="12.041867058724165">
        <ele>1282.059999999999945</ele>
        <time>2015-03-14T09:52:05Z</time>
      </trkpt>
      <trkpt lat="47.69516609609127" lon="12.04188784584403">
        <ele>1282.5</ele>
        <time>2015-03-14T09:52:14Z</time>
      </trkpt>
      <trkpt lat="47.695089317858219" lon="12.041890444234014">
        <ele>1278.690000000000055</ele>
        <time>2015-03-14T09:52:19Z</time>
      </trkpt>
      <trkpt lat="47.69496526569128" lon="12.041986333206296">
        <ele>1272.230000000000018</ele>
        <time>2015-03-14T09:52:23Z</time>
      </trkpt>
      <trkpt lat="47.694932660087943" lon="12.042024973779917">
        <ele>1271.940000000000055</ele>
        <time>2015-03-14T09:52:24Z</time>
      </trkpt>
      <trkpt lat="47.694886475801468" lon="12.042133435606956">
        <ele>1267.920000000000073</ele>
        <time>2015-03-14T09:52:26Z</time>
      </trkpt>
      <trkpt lat="47.694807350635529" lon="12.042267378419638">
        <ele>1264.900000000000091</ele>
        <time>2015-03-14T09:52:29Z</time>
      </trkpt>
      <trkpt lat="47.694739960134029" lon="12.042314736172557">
        <ele>1262.630000000000109</ele>
        <time>2015-03-14T09:52:33Z</time>
      </trkpt>
      <trkpt lat="47.694752281531692" lon="12.042239885777235">
        <ele>1262.880000000000109</ele>
        <time>2015-03-14T09:52:46Z</time>
      </trkpt>
      <trkpt lat="47.694755885750055" lon="12.042291266843677">
        <ele>1262.509999999999991</ele>
        <time>2015-03-14T09:53:02Z</time>
      </trkpt>
      <trkpt lat="47.694735350087285" lon="12.042321860790253">
        <ele>1262.730000000000018</ele>
        <time>2015-03-14T09:53:16Z</time>
      </trkpt>
      <trkpt lat="47.694701654836535" lon="12.042391179129481">
        <ele>1262.269999999999982</ele>
        <time>2015-03-14T09:53:19Z</time>
      </trkpt>
      <trkpt lat="47.694509122520685" lon="12.042591590434313">
        <ele>1258.450000000000045</ele>
        <time>2015-03-14T09:53:23Z</time>
      </trkpt>
      <trkpt lat="47.694433853030205" lon="12.042705249041319">
        <ele>1255.710000000000036</ele>
        <time>2015-03-14T09:53:25Z</time>
      </trkpt>
      <trkpt lat="47.694395966827869" lon="12.042749254032969">
        <ele>1253.190000000000055</ele>
        <time>2015-03-14T09:53:26Z</time>
      </trkpt>
      <trkpt lat="47.694366043433547" lon="12.042807508260012">
        <ele>1252.240000000000009</ele>
        <time>2015-03-14T09:53:27Z</time>
      </trkpt>
      <trkpt lat="47.694328660145402" lon="12.042859476059675">
        <ele>1251.650000000000091</ele>
        <time>2015-03-14T09:53:28Z</time>
      </trkpt>
      <trkpt lat="47.694294042885303" lon="12.042894344776869">
        <ele>1249.279999999999973</ele>
        <time>2015-03-14T09:53:29Z</time>
      </trkpt>
      <trkpt lat="47.694276440888643" lon="12.042925106361508">
        <ele>1248.569999999999936</ele>
        <time>2015-03-14T09:53:30Z</time>
      </trkpt>
      <trkpt lat="47.694258335977793" lon="12.042944887652993">
        <ele>1248.259999999999991</ele>
        <time>2015-03-14T09:53:31Z</time>
      </trkpt>
      <trkpt lat="47.694229250773787" lon="12.04295989125967">
        <ele>1248.440000000000055</ele>
        <time>2015-03-14T09:53:32Z</time>
      </trkpt>
      <trkpt lat="47.694206703454256" lon="12.042963327839971">
        <ele>1246.549999999999955</ele>
        <time>2015-03-14T09:53:33Z</time>
      </trkpt>
      <trkpt lat="47.694197148084641" lon="12.042957628145814">
        <ele>1246.059999999999945</ele>
        <time>2015-03-14T09:53:34Z</time>
      </trkpt>
      <trkpt lat="47.694157669320703" lon="12.042974475771189">
        <ele>1245.740000000000009</ele>
        <time>2015-03-14T09:53:41Z</time>
      </trkpt>
      <trkpt lat="47.694146437570453" lon="12.042996268719435">
        <ele>1245.309999999999945</ele>
        <time>2015-03-14T09:53:42Z</time>
      </trkpt>
      <trkpt lat="47.694138055667281" lon="12.043032143265009">
        <ele>1245.1400000000001</ele>
        <time>2015-03-14T09:53:43Z</time>
      </trkpt>
      <trkpt lat="47.694126488640904" lon="12.043061647564173">
        <ele>1244.759999999999991</ele>
        <time>2015-03-14T09:53:44Z</time>
      </trkpt>
      <trkpt lat="47.694130260497332" lon="12.043086122721434">
        <ele>1243.8900000000001</ele>
        <time>2015-03-14T09:53:53Z</time>
      </trkpt>
      <trkpt lat="47.694099834188819" lon="12.043058210983872">
        <ele>1243.539999999999964</ele>
        <time>2015-03-14T09:54:01Z</time>
      </trkpt>
      <trkpt lat="47.694087848067284" lon="12.043050164356828">
        <ele>1243.690000000000055</ele>
        <time>2015-03-14T09:54:02Z</time>
      </trkpt>
      <trkpt lat="47.694072844460607" lon="12.043041614815593">
        <ele>1244.039999999999964</ele>
        <time>2015-03-14T09:54:03Z</time>
      </trkpt>
      <trkpt lat="47.694055326282978" lon="12.043033903464675">
        <ele>1243.25</ele>
        <time>2015-03-14T09:54:04Z</time>
      </trkpt>
      <trkpt lat="47.694037305191159" lon="12.043026527389884">
        <ele>1243.700000000000045</ele>
        <time>2015-03-14T09:54:05Z</time>
      </trkpt>
      <trkpt lat="47.694011488929391" lon="12.043020157143474">
        <ele>1243.269999999999982</ele>
        <time>2015-03-14T09:54:06Z</time>
      </trkpt>
      <trkpt lat="47.693916773423553" lon="12.04292275942862">
        <ele>1241.980000000000018</ele>
        <time>2015-03-14T09:54:15Z</time>
      </trkpt>
      <trkpt lat="47.693889364600182" lon="12.042905827984214">
        <ele>1241.809999999999945</ele>
        <time>2015-03-14T09:54:28Z</time>
      </trkpt>
      <trkpt lat="47.693866482004523" lon="12.042903648689389">
        <ele>1241.720000000000027</ele>
        <time>2015-03-14T09:54:29Z</time>
      </trkpt>
      <trkpt lat="47.693832786753774" lon="12.042903732508421">
        <ele>1241.220000000000027</ele>
        <time>2015-03-14T09:54:30Z</time>
      </trkpt>
      <trkpt lat="47.693799259141088" lon="12.042918736115098">
        <ele>1240.6099999999999</ele>
        <time>2015-03-14T09:54:31Z</time>
      </trkpt>
      <trkpt lat="47.693777466192842" lon="12.042954778298736">
        <ele>1239.240000000000009</ele>
        <time>2015-03-14T09:54:32Z</time>
      </trkpt>
      <trkpt lat="47.69376615062356" lon="12.043004147708416">
        <ele>1239.319999999999936</ele>
        <time>2015-03-14T09:54:33Z</time>
      </trkpt>
      <trkpt lat="47.69374611787498" lon="12.043054439127445">
        <ele>1237.980000000000018</ele>
        <time>2015-03-14T09:54:34Z</time>
      </trkpt>
      <trkpt lat="47.693716445937753" lon="12.043108502402902">
        <ele>1237.769999999999982</ele>
        <time>2015-03-14T09:54:35Z</time>
      </trkpt>
      <trkpt lat="47.693681912496686" lon="12.043165750801563">
        <ele>1236.259999999999991</ele>
        <time>2015-03-14T09:54:36Z</time>
      </trkpt>
      <trkpt lat="47.693641930818558" lon="12.043218137696385">
        <ele>1233.990000000000009</ele>
        <time>2015-03-14T09:54:37Z</time>
      </trkpt>
      <trkpt lat="47.693638661876321" lon="12.043354175984859">
        <ele>1229.75</ele>
        <time>2015-03-14T09:54:39Z</time>
      </trkpt>
      <trkpt lat="47.693559369072318" lon="12.043554754927754">
        <ele>1227.970000000000027</ele>
        <time>2015-03-14T09:54:45Z</time>
      </trkpt>
      <trkpt lat="47.693311264738441" lon="12.04375390894711">
        <ele>1226.990000000000009</ele>
        <time>2015-03-14T09:54:57Z</time>
      </trkpt>
      <trkpt lat="47.693108757957816" lon="12.043858012184501">
        <ele>1223.430000000000064</ele>
        <time>2015-03-14T09:55:01Z</time>
      </trkpt>
      <trkpt lat="47.693041870370507" lon="12.043882654979825">
        <ele>1223.660000000000082</ele>
        <time>2015-03-14T09:55:02Z</time>
      </trkpt>
      <trkpt lat="47.692845398560166" lon="12.043955409899354">
        <ele>1219.5</ele>
        <time>2015-03-14T09:55:05Z</time>
      </trkpt>
      <trkpt lat="47.692714305594563" lon="12.044105194509029">
        <ele>1216.160000000000082</ele>
        <time>2015-03-14T09:55:08Z</time>
      </trkpt>
      <trkpt lat="47.692542560398579" lon="12.044213237240911">
        <ele>1212.960000000000036</ele>
        <time>2015-03-14T09:55:11Z</time>
      </trkpt>
      <trkpt lat="47.69240090623498" lon="12.044333685189486">
        <ele>1208.789999999999964</ele>
        <time>2015-03-14T09:55:14Z</time>
      </trkpt>
      <trkpt lat="47.692344160750508" lon="12.04434173181653">
        <ele>1208.1099999999999</ele>
        <time>2015-03-14T09:55:15Z</time>
      </trkpt>
      <trkpt lat="47.692141318693757" lon="12.044429909437895">
        <ele>1204.839999999999918</ele>
        <time>2015-03-14T09:55:19Z</time>
      </trkpt>
      <trkpt lat="47.691960018128157" lon="12.044630572199821">
        <ele>1199.6400000000001</ele>
        <time>2015-03-14T09:55:23Z</time>
      </trkpt>
      <trkpt lat="47.691751308739185" lon="12.044600481167436">
        <ele>1196.420000000000073</ele>
        <time>2015-03-14T09:55:29Z</time>
      </trkpt>
      <trkpt lat="47.691687857732177" lon="12.044764934107661">
        <ele>1192.829999999999927</ele>
        <time>2015-03-14T09:55:33Z</time>
      </trkpt>
      <trkpt lat="47.691629938781261" lon="12.04482008703053">
        <ele>1189.240000000000009</ele>
        <time>2015-03-14T09:55:41Z</time>
      </trkpt>
      <trkpt lat="47.691625161096454" lon="12.044778261333704">
        <ele>1188.539999999999964</ele>
        <time>2015-03-14T09:55:50Z</time>
      </trkpt>
      <trkpt lat="47.691577132791281" lon="12.044822182506323">
        <ele>1188.170000000000073</ele>
        <time>2015-03-14T09:55:54Z</time>
      </trkpt>
      <trkpt lat="47.691591382026672" lon="12.044898457825184">
        <ele>1187.940000000000055</ele>
        <time>2015-03-14T09:56:03Z</time>
      </trkpt>
      <trkpt lat="47.691577300429344" lon="12.045001555234194">
        <ele>1187.289999999999964</ele>
        <time>2015-03-14T09:56:06Z</time>
      </trkpt>
      <trkpt lat="47.691522566601634" lon="12.045220322906971">
        <ele>1184.960000000000036</ele>
        <time>2015-03-14T09:56:10Z</time>
      </trkpt>
      <trkpt lat="47.691401531919837" lon="12.045434396713972">
        <ele>1179.279999999999973</ele>
        <time>2015-03-14T09:56:14Z</time>
      </trkpt>
      <trkpt lat="47.691313857212663" lon="12.045507822185755">
        <ele>1175.630000000000109</ele>
        <time>2015-03-14T09:56:16Z</time>
      </trkpt>
      <trkpt lat="47.691237162798643" lon="12.045612260699272">
        <ele>1171.779999999999973</ele>
        <time>2015-03-14T09:56:18Z</time>
      </trkpt>
      <trkpt lat="47.691106153652072" lon="12.045710245147347">
        <ele>1168.490000000000009</ele>
        <time>2015-03-14T09:56:21Z</time>
      </trkpt>
      <trkpt lat="47.690945640206337" lon="12.045825580134988">
        <ele>1160.730000000000018</ele>
        <time>2015-03-14T09:56:25Z</time>
      </trkpt>
      <trkpt lat="47.690935749560595" lon="12.04589506611228">
        <ele>1160.430000000000064</ele>
        <time>2015-03-14T09:56:26Z</time>
      </trkpt>
      <trkpt lat="47.690918985754251" lon="12.045967653393745">
        <ele>1158.029999999999973</ele>
        <time>2015-03-14T09:56:27Z</time>
      </trkpt>
      <trkpt lat="47.69088570959866" lon="12.046139817684889">
        <ele>1152.630000000000109</ele>
        <time>2015-03-14T09:56:31Z</time>
      </trkpt>
      <trkpt lat="47.690887218341231" lon="12.046152809634805">
        <ele>1152.579999999999927</ele>
        <time>2015-03-14T09:56:32Z</time>
      </trkpt>
      <trkpt lat="47.69090280868113" lon="12.046140236780047">
        <ele>1153.029999999999973</ele>
        <time>2015-03-14T09:56:42Z</time>
      </trkpt>
      <trkpt lat="47.690858887508512" lon="12.046172339469194">
        <ele>1150.769999999999982</ele>
        <time>2015-03-14T09:56:45Z</time>
      </trkpt>
      <trkpt lat="47.690791413187981" lon="12.04613889567554">
        <ele>1148.470000000000027</ele>
        <time>2015-03-14T09:56:48Z</time>
      </trkpt>
      <trkpt lat="47.690774481743574" lon="12.046154569834471">
        <ele>1147.380000000000109</ele>
        <time>2015-03-14T09:56:54Z</time>
      </trkpt>
      <trkpt lat="47.690729387104511" lon="12.04609933309257">
        <ele>1145.3900000000001</ele>
        <time>2015-03-14T09:57:04Z</time>
      </trkpt>
      <trkpt lat="47.690726788714528" lon="12.04610176384449">
        <ele>1145.420000000000073</ele>
        <time>2015-03-14T09:57:05Z</time>
      </trkpt>
      <trkpt lat="47.690661493688822" lon="12.046124478802085">
        <ele>1143.519999999999982</ele>
        <time>2015-03-14T09:57:08Z</time>
      </trkpt>
      <trkpt lat="47.690628720447421" lon="12.046265378594398">
        <ele>1138.839999999999918</ele>
        <time>2015-03-14T09:57:12Z</time>
      </trkpt>
      <trkpt lat="47.690654117614031" lon="12.046454809606075">
        <ele>1136.3599999999999</ele>
        <time>2015-03-14T09:57:15Z</time>
      </trkpt>
      <trkpt lat="47.690635845065117" lon="12.046487582847476">
        <ele>1134.910000000000082</ele>
        <time>2015-03-14T09:57:17Z</time>
      </trkpt>
      <trkpt lat="47.690580021589994" lon="12.046537203714252">
        <ele>1131.819999999999936</ele>
        <time>2015-03-14T09:57:20Z</time>
      </trkpt>
      <trkpt lat="47.690508607774973" lon="12.046538796275854">
        <ele>1129.269999999999982</ele>
        <time>2015-03-14T09:57:22Z</time>
      </trkpt>
      <trkpt lat="47.690427135676146" lon="12.046563439071178">
        <ele>1125.75</ele>
        <time>2015-03-14T09:57:24Z</time>
      </trkpt>
      <trkpt lat="47.690384471789002" lon="12.046583974733949">
        <ele>1124.400000000000091</ele>
        <time>2015-03-14T09:57:25Z</time>
      </trkpt>
      <trkpt lat="47.690281877294183" lon="12.046697633340955">
        <ele>1119.960000000000036</ele>
        <time>2015-03-14T09:57:28Z</time>
      </trkpt>
      <trkpt lat="47.690243571996689" lon="12.0467384532094">
        <ele>1119.190000000000055</ele>
        <time>2015-03-14T09:57:29Z</time>
      </trkpt>
      <trkpt lat="47.690178696066141" lon="12.046819673851132">
        <ele>1117.25</ele>
        <time>2015-03-14T09:57:31Z</time>
      </trkpt>
      <trkpt lat="47.690131003037095" lon="12.046923106536269">
        <ele>1115.869999999999891</ele>
        <time>2015-03-14T09:57:33Z</time>
      </trkpt>
      <trkpt lat="47.690034359693527" lon="12.047083200886846">
        <ele>1111.400000000000091</ele>
        <time>2015-03-14T09:57:36Z</time>
      </trkpt>
      <trkpt lat="47.689985493198037" lon="12.047200547531247">
        <ele>1106.710000000000036</ele>
        <time>2015-03-14T09:57:39Z</time>
      </trkpt>
      <trkpt lat="47.689985241740942" lon="12.047206498682499">
        <ele>1106.970000000000027</ele>
        <time>2015-03-14T09:57:40Z</time>
      </trkpt>
      <trkpt lat="47.689994797110558" lon="12.047218652442098">
        <ele>1108.009999999999991</ele>
        <time>2015-03-14T09:57:52Z</time>
      </trkpt>
      <trkpt lat="47.689965544268489" lon="12.047346476465464">
        <ele>1107.049999999999955</ele>
        <time>2015-03-14T09:57:55Z</time>
      </trkpt>
      <trkpt lat="47.689900835976005" lon="12.04757547006011">
        <ele>1104.650000000000091</ele>
        <time>2015-03-14T09:57:58Z</time>
      </trkpt>
      <trkpt lat="47.689873930066824" lon="12.047658702358603">
        <ele>1104.170000000000073</ele>
        <time>2015-03-14T09:57:59Z</time>
      </trkpt>
      <trkpt lat="47.689733700826764" lon="12.047963635995984">
        <ele>1100.200000000000045</ele>
        <time>2015-03-14T09:58:03Z</time>
      </trkpt>
      <trkpt lat="47.689568996429443" lon="12.048296313732862">
        <ele>1094.319999999999936</ele>
        <time>2015-03-14T09:58:07Z</time>
      </trkpt>
      <trkpt lat="47.689505377784371" lon="12.048496389761567">
        <ele>1091.450000000000045</ele>
        <time>2015-03-14T09:58:09Z</time>
      </trkpt>
      <trkpt lat="47.689452907070518" lon="12.048815991729498">
        <ele>1085.819999999999936</ele>
        <time>2015-03-14T09:58:12Z</time>
      </trkpt>
      <trkpt lat="47.689423318952322" lon="12.048896374180913">
        <ele>1084.299999999999955</ele>
        <time>2015-03-14T09:58:13Z</time>
      </trkpt>
      <trkpt lat="47.689389623701572" lon="12.04897684045136">
        <ele>1082.279999999999973</ele>
        <time>2015-03-14T09:58:14Z</time>
      </trkpt>
      <trkpt lat="47.689325837418437" lon="12.049130732193589">
        <ele>1079.440000000000055</ele>
        <time>2015-03-14T09:58:16Z</time>
      </trkpt>
      <trkpt lat="47.68917546607554" lon="12.049379171803594">
        <ele>1074.029999999999973</ele>
        <time>2015-03-14T09:58:20Z</time>
      </trkpt>
      <trkpt lat="47.689107907935977" lon="12.049487885087729">
        <ele>1070.940000000000055</ele>
        <time>2015-03-14T09:58:22Z</time>
      </trkpt>
      <trkpt lat="47.689071027562022" lon="12.049620570614934">
        <ele>1069.430000000000064</ele>
        <time>2015-03-14T09:58:24Z</time>
      </trkpt>
      <trkpt lat="47.689060382544994" lon="12.049679327756166">
        <ele>1067.599999999999909</ele>
        <time>2015-03-14T09:58:25Z</time>
      </trkpt>
      <trkpt lat="47.689068512991071" lon="12.049819137901068">
        <ele>1064.630000000000109</ele>
        <time>2015-03-14T09:58:28Z</time>
      </trkpt>
      <trkpt lat="47.689112601801753" lon="12.050024075433612">
        <ele>1061.059999999999945</ele>
        <time>2015-03-14T09:58:34Z</time>
      </trkpt>
      <trkpt lat="47.689183596521616" lon="12.050214931368828">
        <ele>1060.079999999999927</ele>
        <time>2015-03-14T09:58:39Z</time>
      </trkpt>
      <trkpt lat="47.689192229881883" lon="12.050269162282348">
        <ele>1058.630000000000109</ele>
        <time>2015-03-14T09:58:42Z</time>
      </trkpt>
      <trkpt lat="47.689200025051832" lon="12.050406541675329">
        <ele>1057.740000000000009</ele>
        <time>2015-03-14T09:58:46Z</time>
      </trkpt>
      <trkpt lat="47.689182087779045" lon="12.050395980477333">
        <ele>1056.799999999999955</ele>
        <time>2015-03-14T09:59:02Z</time>
      </trkpt>
      <trkpt lat="47.68917839974165" lon="12.050395896658301">
        <ele>1056.6400000000001</ele>
        <time>2015-03-14T09:59:03Z</time>
      </trkpt>
      <trkpt lat="47.689175801351666" lon="12.05047057941556">
        <ele>1054.880000000000109</ele>
        <time>2015-03-14T09:59:11Z</time>
      </trkpt>
      <trkpt lat="47.689179824665189" lon="12.050486421212554">
        <ele>1054.900000000000091</ele>
        <time>2015-03-14T09:59:13Z</time>
      </trkpt>
      <trkpt lat="47.689226930961013" lon="12.05058834515512">
        <ele>1051.019999999999982</ele>
        <time>2015-03-14T09:59:17Z</time>
      </trkpt>
      <trkpt lat="47.689199857413769" lon="12.050709463655949">
        <ele>1047.900000000000091</ele>
        <time>2015-03-14T09:59:20Z</time>
      </trkpt>
      <trkpt lat="47.689186446368694" lon="12.050797557458282">
        <ele>1046.25</ele>
        <time>2015-03-14T09:59:22Z</time>
      </trkpt>
      <trkpt lat="47.689157612621784" lon="12.050888752564788">
        <ele>1043.130000000000109</ele>
        <time>2015-03-14T09:59:24Z</time>
      </trkpt>
      <trkpt lat="47.689131209626794" lon="12.050996627658606">
        <ele>1040.079999999999927</ele>
        <time>2015-03-14T09:59:26Z</time>
      </trkpt>
      <trkpt lat="47.689092569053173" lon="12.051107939332724">
        <ele>1037.400000000000091</ele>
        <time>2015-03-14T09:59:28Z</time>
      </trkpt>
      <trkpt lat="47.6890704408288" lon="12.051230818033218">
        <ele>1032.1400000000001</ele>
        <time>2015-03-14T09:59:32Z</time>
      </trkpt>
      <trkpt lat="47.689074045047164" lon="12.051285048946738">
        <ele>1030.559999999999945</ele>
        <time>2015-03-14T09:59:46Z</time>
      </trkpt>
      <trkpt lat="47.689051497727633" lon="12.051373980939388">
        <ele>1029.3900000000001</ele>
        <time>2015-03-14T10:00:00Z</time>
      </trkpt>
      <trkpt lat="47.689045378938317" lon="12.051395438611507">
        <ele>1028.25</ele>
        <time>2015-03-14T10:00:16Z</time>
      </trkpt>
      <trkpt lat="47.688989639282227" lon="12.051474899053574">
        <ele>1025.710000000000036</ele>
        <time>2015-03-14T10:00:31Z</time>
      </trkpt>
      <trkpt lat="47.688860474154353" lon="12.05150306224823">
        <ele>1022.879999999999995</ele>
        <time>2015-03-14T10:00:34Z</time>
      </trkpt>
      <trkpt lat="47.688788389787078" lon="12.051463248208165">
        <ele>1021.629999999999995</ele>
        <time>2015-03-14T10:00:36Z</time>
      </trkpt>
      <trkpt lat="47.688634833320975" lon="12.051457380875945">
        <ele>1018.200000000000045</ele>
        <time>2015-03-14T10:00:43Z</time>
      </trkpt>
      <trkpt lat="47.688639611005783" lon="12.051634406670928">
        <ele>1014.389999999999986</ele>
        <time>2015-03-14T10:00:47Z</time>
      </trkpt>
      <trkpt lat="47.68857691437006" lon="12.05177622847259">
        <ele>1011.440000000000055</ele>
        <time>2015-03-14T10:00:50Z</time>
      </trkpt>
      <trkpt lat="47.688580853864551" lon="12.051822748035192">
        <ele>1010.740000000000009</ele>
        <time>2015-03-14T10:00:51Z</time>
      </trkpt>
      <trkpt lat="47.688543973490596" lon="12.052021902054548">
        <ele>1008.17999999999995</ele>
        <time>2015-03-14T10:00:55Z</time>
      </trkpt>
      <trkpt lat="47.688441462814808" lon="12.052121311426163">
        <ele>1005.67999999999995</ele>
        <time>2015-03-14T10:00:58Z</time>
      </trkpt>
      <trkpt lat="47.688406426459551" lon="12.052179984748363">
        <ele>1005.159999999999968</ele>
        <time>2015-03-14T10:00:59Z</time>
      </trkpt>
      <trkpt lat="47.688385806977749" lon="12.052245447412133">
        <ele>1005.039999999999964</ele>
        <time>2015-03-14T10:01:00Z</time>
      </trkpt>
      <trkpt lat="47.688384717330337" lon="12.052295235916972">
        <ele>1004.710000000000036</ele>
        <time>2015-03-14T10:01:01Z</time>
      </trkpt>
      <trkpt lat="47.688389327377081" lon="12.052319459617138">
        <ele>1004.75</ele>
        <time>2015-03-14T10:01:02Z</time>
      </trkpt>
      <trkpt lat="47.688426710665226" lon="12.052310155704618">
        <ele>1004.190000000000055</ele>
        <time>2015-03-14T10:01:14Z</time>
      </trkpt>
      <trkpt lat="47.68842545337975" lon="12.052347874268889">
        <ele>1004.720000000000027</ele>
        <time>2015-03-14T10:01:29Z</time>
      </trkpt>
      <trkpt lat="47.688430566340685" lon="12.052366733551025">
        <ele>1005.269999999999982</ele>
        <time>2015-03-14T10:01:45Z</time>
      </trkpt>
      <trkpt lat="47.688441378995776" lon="12.052403027191758">
        <ele>1004.059999999999945</ele>
        <time>2015-03-14T10:02:01Z</time>
      </trkpt>
      <trkpt lat="47.688453365117311" lon="12.052442505955696">
        <ele>1004</ele>
        <time>2015-03-14T10:02:18Z</time>
      </trkpt>
      <trkpt lat="47.688473146408796" lon="12.052428927272558">
        <ele>1004.649999999999977</ele>
        <time>2015-03-14T10:02:32Z</time>
      </trkpt>
      <trkpt lat="47.688448252156377" lon="12.052494809031487">
        <ele>1004.82000000000005</ele>
        <time>2015-03-14T10:02:45Z</time>
      </trkpt>
      <trkpt lat="47.688436852768064" lon="12.052565049380064">
        <ele>1005.090000000000032</ele>
        <time>2015-03-14T10:02:48Z</time>
      </trkpt>
      <trkpt lat="47.688435511663556" lon="12.052603354677558">
        <ele>1004.669999999999959</ele>
        <time>2015-03-14T10:02:49Z</time>
      </trkpt>
      <trkpt lat="47.68843567930162" lon="12.052644928917289">
        <ele>1004.240000000000009</ele>
        <time>2015-03-14T10:02:50Z</time>
      </trkpt>
      <trkpt lat="47.688435930758715" lon="12.052685748785734">
        <ele>1004.299999999999955</ele>
        <time>2015-03-14T10:02:51Z</time>
      </trkpt>
      <trkpt lat="47.68844154663384" lon="12.052721539512277">
        <ele>1004</ele>
        <time>2015-03-14T10:02:52Z</time>
      </trkpt>
      <trkpt lat="47.688447581604123" lon="12.052745511755347">
        <ele>1004.100000000000023</ele>
        <time>2015-03-14T10:02:53Z</time>
      </trkpt>
      <trkpt lat="47.68847968429327" lon="12.053278684616089">
        <ele>1002.460000000000036</ele>
        <time>2015-03-14T10:03:06Z</time>
      </trkpt>
      <trkpt lat="47.688472811132669" lon="12.053388068452477">
        <ele>1001.860000000000014</ele>
        <time>2015-03-14T10:03:08Z</time>
      </trkpt>
      <trkpt lat="47.688437690958381" lon="12.053711358457804">
        <ele>1000.090000000000032</ele>
        <time>2015-03-14T10:03:13Z</time>
      </trkpt>
      <trkpt lat="47.688429644331336" lon="12.053792746737599">
        <ele>999.330000000000041</ele>
        <time>2015-03-14T10:03:14Z</time>
      </trkpt>
      <trkpt lat="47.688427045941353" lon="12.053875727578998">
        <ele>998.669999999999959</ele>
        <time>2015-03-14T10:03:15Z</time>
      </trkpt>
      <trkpt lat="47.688423190265894" lon="12.053952002897859">
        <ele>998.039999999999964</ele>
        <time>2015-03-14T10:03:16Z</time>
      </trkpt>
      <trkpt lat="47.688408019021153" lon="12.054005227982998">
        <ele>996.42999999999995</ele>
        <time>2015-03-14T10:03:17Z</time>
      </trkpt>
      <trkpt lat="47.688393099233508" lon="12.054032888263464">
        <ele>996.549999999999955</ele>
        <time>2015-03-14T10:03:18Z</time>
      </trkpt>
      <trkpt lat="47.688370635733008" lon="12.054048394784331">
        <ele>996.759999999999991</ele>
        <time>2015-03-14T10:03:30Z</time>
      </trkpt>
      <trkpt lat="47.68833945505321" lon="12.054076809436083">
        <ele>996.82000000000005</ele>
        <time>2015-03-14T10:03:45Z</time>
      </trkpt>
      <trkpt lat="47.688322691246867" lon="12.054151240736246">
        <ele>997.399999999999977</ele>
        <time>2015-03-14T10:03:58Z</time>
      </trkpt>
      <trkpt lat="47.688319589942694" lon="12.054181499406695">
        <ele>996.840000000000032</ele>
        <time>2015-03-14T10:03:59Z</time>
      </trkpt>
      <trkpt lat="47.688314644619823" lon="12.05423790961504">
        <ele>996.710000000000036</ele>
        <time>2015-03-14T10:04:01Z</time>
      </trkpt>
      <trkpt lat="47.688302071765065" lon="12.054262384772301">
        <ele>996.600000000000023</ele>
        <time>2015-03-14T10:04:03Z</time>
      </trkpt>
      <trkpt lat="47.688281536102295" lon="12.054301109164953">
        <ele>996.669999999999959</ele>
        <time>2015-03-14T10:04:09Z</time>
      </trkpt>
      <trkpt lat="47.688256641849875" lon="12.054358273744583">
        <ele>996.659999999999968</ele>
        <time>2015-03-14T10:04:12Z</time>
      </trkpt>
      <trkpt lat="47.688075006008148" lon="12.054684329777956">
        <ele>996.610000000000014</ele>
        <time>2015-03-14T10:04:28Z</time>
      </trkpt>
      <trkpt lat="47.68766219727695" lon="12.054879209026694">
        <ele>993.980000000000018</ele>
        <time>2015-03-14T10:04:40Z</time>
      </trkpt>
      <trkpt lat="47.687470838427544" lon="12.054928662255406">
        <ele>994.17999999999995</ele>
        <time>2015-03-14T10:04:47Z</time>
      </trkpt>
      <trkpt lat="47.687451140955091" lon="12.054934278130531">
        <ele>994.970000000000027</ele>
        <time>2015-03-14T10:04:49Z</time>
      </trkpt>
      <trkpt lat="47.687431443482637" lon="12.054937714710832">
        <ele>995.07000000000005</ele>
        <time>2015-03-14T10:04:51Z</time>
      </trkpt>
      <trkpt lat="47.687272438779473" lon="12.054991023615003">
        <ele>995.950000000000045</ele>
        <time>2015-03-14T10:05:01Z</time>
      </trkpt>
      <trkpt lat="47.687137657776475" lon="12.055084314197302">
        <ele>997.259999999999991</ele>
        <time>2015-03-14T10:05:13Z</time>
      </trkpt>
      <trkpt lat="47.68709440715611" lon="12.055113986134529">
        <ele>997.360000000000014</ele>
        <time>2015-03-14T10:05:19Z</time>
      </trkpt>
      <trkpt lat="47.687083426862955" lon="12.055121529847383">
        <ele>997.32000000000005</ele>
        <time>2015-03-14T10:05:20Z</time>
      </trkpt>
      <trkpt lat="47.68707144074142" lon="12.055134773254395">
        <ele>997.549999999999955</ele>
        <time>2015-03-14T10:05:21Z</time>
      </trkpt>
      <trkpt lat="47.687060544267297" lon="12.055145837366581">
        <ele>997.379999999999995</ele>
        <time>2015-03-14T10:05:22Z</time>
      </trkpt>
      <trkpt lat="47.687050234526396" lon="12.055154051631689">
        <ele>997.690000000000055</ele>
        <time>2015-03-14T10:05:23Z</time>
      </trkpt>
      <trkpt lat="47.68704017624259" lon="12.055159332230687">
        <ele>997.889999999999986</ele>
        <time>2015-03-14T10:05:24Z</time>
      </trkpt>
      <trkpt lat="47.68702793866396" lon="12.055164277553558">
        <ele>997.990000000000009</ele>
        <time>2015-03-14T10:05:25Z</time>
      </trkpt>
      <trkpt lat="47.68700597807765" lon="12.055174000561237">
        <ele>997.830000000000041</ele>
        <time>2015-03-14T10:05:27Z</time>
      </trkpt>
      <trkpt lat="47.68699181266129" lon="12.055181628093123">
        <ele>997.75</ele>
        <time>2015-03-14T10:05:28Z</time>
      </trkpt>
      <trkpt lat="47.686977311968803" lon="12.055193530395627">
        <ele>998.350000000000023</ele>
        <time>2015-03-14T10:05:29Z</time>
      </trkpt>
      <trkpt lat="47.686966583132744" lon="12.055201157927513">
        <ele>998.120000000000005</ele>
        <time>2015-03-14T10:05:30Z</time>
      </trkpt>
      <trkpt lat="47.686956860125065" lon="12.055205265060067">
        <ele>998.350000000000023</ele>
        <time>2015-03-14T10:05:31Z</time>
      </trkpt>
      <trkpt lat="47.686696853488684" lon="12.05531976185739">
        <ele>996.909999999999968</ele>
        <time>2015-03-14T10:05:45Z</time>
      </trkpt>
      <trkpt lat="47.686562240123749" lon="12.055327808484435">
        <ele>994.620000000000005</ele>
        <time>2015-03-14T10:05:49Z</time>
      </trkpt>
      <trkpt lat="47.686551259830594" lon="12.055309619754553">
        <ele>994.399999999999977</ele>
        <time>2015-03-14T10:05:50Z</time>
      </trkpt>
      <trkpt lat="47.686516726389527" lon="12.055291179567575">
        <ele>994.809999999999945</ele>
        <time>2015-03-14T10:05:55Z</time>
      </trkpt>
      <trkpt lat="47.686511194333434" lon="12.055293945595622">
        <ele>994.649999999999977</ele>
        <time>2015-03-14T10:06:09Z</time>
      </trkpt>
      <trkpt lat="47.68653005361557" lon="12.055253544822335">
        <ele>994.759999999999991</ele>
        <time>2015-03-14T10:06:25Z</time>
      </trkpt>
      <trkpt lat="47.686518235132098" lon="12.055290173739195">
        <ele>991.039999999999964</ele>
        <time>2015-03-14T10:06:33Z</time>
      </trkpt>
      <trkpt lat="47.686514630913734" lon="12.055298304185271">
        <ele>994.700000000000045</ele>
        <time>2015-03-14T10:06:56Z</time>
      </trkpt>
      <trkpt lat="47.686511697247624" lon="12.055301824584603">
        <ele>992.529999999999973</ele>
        <time>2015-03-14T10:07:08Z</time>
      </trkpt>
      <trkpt lat="47.686506835743785" lon="12.055303165689111">
        <ele>994.620000000000005</ele>
        <time>2015-03-14T10:07:13Z</time>
      </trkpt>
      <trkpt lat="47.68648068420589" lon="12.055320767685771">
        <ele>994.059999999999945</ele>
        <time>2015-03-14T10:07:37Z</time>
      </trkpt>
      <trkpt lat="47.686487892642617" lon="12.055292017757893">
        <ele>995.029999999999973</ele>
        <time>2015-03-14T10:07:44Z</time>
      </trkpt>
    </trkseg>
  </trk>

</gpx>
